Observation data for Dozier on 01/16/2019      Previous  Date  Next       Current Mesonet Observations  Soil Data  Daily Summary Page  Observations in Plain Language
KDO1 160600Z 05003KT 04/04 A301 RMK A01 T00350035  RH  100%=      5-min Rain = 0
KDO1 160601Z 05003KT 03/03 A301 RMK A01 T00340034  RH  100%=      5-min Rain = 0
KDO1 160602Z 05003KT 03/03 A301 RMK A01 T00330033  RH  100%=      5-min Rain = 0
KDO1 160603Z 04003KT 03/03 A301 RMK A01 T00330033  RH  100%=      5-min Rain = 0
KDO1 160604Z 03003KT 03/03 A301 RMK A01 T00320032  RH  100%=      5-min Rain = 0
KDO1 160605Z 03003KT 03/03 A301 RMK A01 T00310031  RH  100%=      5-min Rain = 0
KDO1 160606Z 03002KT 03/03 A301 RMK A01 T00300030  RH  100%=      5-min Rain = 0
KDO1 160607Z 04002KT 03/03 A301 RMK A01 T00290029  RH  100%=      5-min Rain = 0
KDO1 160608Z 05001KT 03/03 A301 RMK A01 T00290029  RH  100%=      5-min Rain = 0
KDO1 160609Z 04002KT 03/03 A301 RMK A01 T00280028  RH  100%=      5-min Rain = 0
KDO1 160610Z 04002KT 03/03 A301 RMK A01 T00280027  RH  100%=      5-min Rain = 0
KDO1 160611Z 04002KT 03/03 A301 RMK A01 T00270027  RH  100%=      5-min Rain = 0
KDO1 160612Z 04002KT 03/03 A301 RMK A01 T00270027  RH  100%=      5-min Rain = 0
KDO1 160613Z 04003KT 03/03 A301 RMK A01 T00270027  RH  100%=      5-min Rain = 0
KDO1 160614Z 04003KT 03/03 A301 RMK A01 T00280028  RH  100%=      5-min Rain = 0
KDO1 160615Z 04003KT 03/03 A301 RMK A01 T00280028  RH  100%=      5-min Rain = 0
KDO1 160616Z 04003KT 03/03 A301 RMK A01 T00280028  RH  100%=      5-min Rain = 0
KDO1 160617Z 04003KT 03/03 A301 RMK A01 T00280028  RH  100%=      5-min Rain = 0
KDO1 160618Z 04003KT 03/03 A3009 RMK A01 T00280028  RH  100%=      5-min Rain = 0
KDO1 160619Z 04003KT 03/03 A3009 RMK A01 T00280028  RH  100%=      5-min Rain = 0
KDO1 160620Z 03003KT 03/03 A3009 RMK A01 T00280028  RH  100%=      5-min Rain = 0
KDO1 160621Z 02003KT 03/03 A3009 RMK A01 T00270027  RH  100%=      5-min Rain = 0
KDO1 160622Z 02003KT 03/03 A3009 RMK A01 T00260026  RH  100%=      5-min Rain = 0
KDO1 160623Z 03003KT 03/03 A3009 RMK A01 T00260025  RH  100%=      5-min Rain = 0
KDO1 160624Z 04003KT 03/03 A3009 RMK A01 T00250025  RH  100%=      5-min Rain = 0
KDO1 160625Z 03003KT 03/03 A3009 RMK A01 T00250025  RH  100%=      5-min Rain = 0
KDO1 160626Z 03003KT 03/03 A3009 RMK A01 T00250025  RH  100%=      5-min Rain = 0
KDO1 160627Z 03003KT 02/02 A3009 RMK A01 T00240024  RH  100%=      5-min Rain = 0
KDO1 160628Z 04003KT 02/02 A3009 RMK A01 T00240024  RH  100%=      5-min Rain = 0
KDO1 160629Z 04002KT 02/02 A3009 RMK A01 T00240024  RH  100%=      5-min Rain = 0
KDO1 160630Z 04002KT 02/02 A3009 RMK A01 T00240024  RH  100%=      5-min Rain = 0
KDO1 160631Z 03002KT 03/02 A3009 RMK A01 T00250024  RH  100%=      5-min Rain = 0
KDO1 160632Z 04002KT 03/02 A301 RMK A01 T00250024  RH  100%=      5-min Rain = 0
KDO1 160633Z 04002KT 02/02 A301 RMK A01 T00240024  RH  100%=      5-min Rain = 0
KDO1 160634Z 05002KT 02/02 A301 RMK A01 T00240024  RH  100%=      5-min Rain = 0
KDO1 160635Z 05001KT 02/02 A301 RMK A01 T00230023  RH  100%=      5-min Rain = 0
KDO1 160636Z 04001KT 02/02 A301 RMK A01 T00230023  RH  100%=      5-min Rain = 0
KDO1 160637Z 04001KT 02/02 A301 RMK A01 T00220022  RH  100%=      5-min Rain = 0
KDO1 160638Z 03001KT 02/02 A301 RMK A01 T00210021  RH  100%=      5-min Rain = 0
KDO1 160639Z 03001KT 02/02 A3009 RMK A01 T00210021  RH  100%=      5-min Rain = 0
KDO1 160640Z 03001KT 02/02 A3009 RMK A01 T00200020  RH  100%=      5-min Rain = 0
KDO1 160641Z 02001KT 02/02 A301 RMK A01 T00210021  RH  100%=      5-min Rain = 0
KDO1 160642Z 03001KT 02/02 A301 RMK A01 T00200020  RH  100%=      5-min Rain = 0
KDO1 160643Z 04001KT 02/02 A301 RMK A01 T00190019  RH  100%=      5-min Rain = 0
KDO1 160644Z 03001KT 02/02 A301 RMK A01 T00190019  RH  100%=      5-min Rain = 0
KDO1 160645Z 05001KT 02/02 A301 RMK A01 T00180018  RH  100%=      5-min Rain = 0
KDO1 160646Z 05001KT 02/02 A301 RMK A01 T00190019  RH  100%=      5-min Rain = 0
KDO1 160647Z 05001KT 02/02 A301 RMK A01 T00210021  RH  100%=      5-min Rain = 0
KDO1 160648Z 05001KT 02/02 A301 RMK A01 T00220022  RH  100%=      5-min Rain = 0
KDO1 160649Z 04001KT 02/02 A301 RMK A01 T00220022  RH  100%=      5-min Rain = 0
KDO1 160650Z 05001KT 02/02 A301 RMK A01 T00220022  RH  100%=      5-min Rain = 0
KDO1 160651Z 04001KT 02/02 A301 RMK A01 T00220022  RH  100%=      5-min Rain = 0
KDO1 160652Z 03000KT 02/02 A301 RMK A01 T00220022  RH  100%=      5-min Rain = 0
KDO1 160653Z 02001KT 02/02 A301 RMK A01 T00220022  RH  100%=      5-min Rain = 0
KDO1 160654Z 03001KT 02/02 A301 RMK A01 T00220022  RH  100%=      5-min Rain = 0
KDO1 160655Z 04001KT 02/02 A301 RMK A01 T00210021  RH  100%=      5-min Rain = 0
KDO1 160656Z 06001KT 02/02 A301 RMK A01 T00210021  RH  100%=      5-min Rain = 0
KDO1 160657Z 06001KT 02/02 A301 RMK A01 T00220021  RH  100%=      5-min Rain = 0
KDO1 160658Z 07001KT 02/02 A3009 RMK A01 T00230022  RH  100%=      5-min Rain = 0
KDO1 160659Z 08001KT 02/02 A3009 RMK A01 T00240024  RH  100%=      5-min Rain = 0
KDO1 160700Z 07001KT 03/03 A3009 RMK A01 T00260026  RH  100%=      5-min Rain = 0
KDO1 160701Z 08001KT 03/03 A3009 RMK A01 T00270027  RH  100%=      5-min Rain = 0
KDO1 160702Z 08001KT 03/03 A3009 RMK A01 T00280028  RH  100%=      5-min Rain = 0
KDO1 160703Z 07001KT 03/03 A3009 RMK A01 T00280027  RH  100%=      5-min Rain = 0
KDO1 160704Z 06001KT 03/03 A3009 RMK A01 T00280027  RH  100%=      5-min Rain = 0
KDO1 160705Z 06001KT 03/03 A3009 RMK A01 T00270027  RH  100%=      5-min Rain = 0
KDO1 160706Z 06001KT 03/03 A3009 RMK A01 T00260026  RH  100%=      5-min Rain = 0
KDO1 160707Z 05001KT 03/03 A3009 RMK A01 T00260026  RH  100%=      5-min Rain = 0
KDO1 160708Z 06001KT 03/03 A3009 RMK A01 T00270026  RH  100%=      5-min Rain = 0
KDO1 160709Z 06001KT 03/03 A3009 RMK A01 T00280028  RH  100%=      5-min Rain = 0
KDO1 160710Z 07001KT 03/03 A3009 RMK A01 T00280028  RH  100%=      5-min Rain = 0
KDO1 160711Z 08001KT 03/03 A3009 RMK A01 T00280028  RH  100%=      5-min Rain = 0
KDO1 160712Z 08001KT 03/03 A3009 RMK A01 T00280028  RH  100%=      5-min Rain = 0
KDO1 160713Z 08001KT 03/03 A3009 RMK A01 T00280028  RH  100%=      5-min Rain = 0
KDO1 160714Z 07001KT 03/03 A3009 RMK A01 T00270027  RH  100%=      5-min Rain = 0
KDO1 160715Z 08001KT 03/03 A3009 RMK A01 T00270027  RH  100%=      5-min Rain = 0
KDO1 160716Z 08001KT 03/03 A3009 RMK A01 T00270027  RH  100%=      5-min Rain = 0
KDO1 160717Z 09002KT 03/03 A3009 RMK A01 T00270027  RH  100%=      5-min Rain = 0
KDO1 160718Z 09002KT 03/03 A3009 RMK A01 T00280028  RH  100%=      5-min Rain = 0
KDO1 160719Z 09002KT 03/03 A3009 RMK A01 T00280028  RH  100%=      5-min Rain = 0
KDO1 160720Z 08002KT 03/03 A3008 RMK A01 T00290028  RH  100%=      5-min Rain = 0
KDO1 160721Z 08002KT 03/03 A3008 RMK A01 T00280028  RH  100%=      5-min Rain = 0
KDO1 160722Z 08002KT 03/03 A3008 RMK A01 T00270027  RH  100%=      5-min Rain = 0
KDO1 160723Z 08002KT 03/03 A3008 RMK A01 T00270027  RH  100%=      5-min Rain = 0
KDO1 160724Z 08002KT 03/03 A3008 RMK A01 T00270027  RH  100%=      5-min Rain = 0
KDO1 160725Z 07002KT 03/03 A3008 RMK A01 T00270027  RH  100%=      5-min Rain = 0
KDO1 160726Z 07002KT 03/03 A3008 RMK A01 T00270027  RH  100%=      5-min Rain = 0
KDO1 160727Z 07002KT 03/03 A3008 RMK A01 T00270027  RH  100%=      5-min Rain = 0
KDO1 160728Z 07002KT 03/03 A3008 RMK A01 T00270027  RH  100%=      5-min Rain = 0
KDO1 160729Z 07002KT 03/03 A3008 RMK A01 T00260026  RH  100%=      5-min Rain = 0
KDO1 160730Z 07002KT 03/03 A3008 RMK A01 T00260025  RH  100%=      5-min Rain = 0
KDO1 160731Z 07002KT 03/03 A3008 RMK A01 T00250025  RH  100%=      5-min Rain = 0
KDO1 160732Z 07002KT 03/03 A3008 RMK A01 T00250025  RH  100%=      5-min Rain = 0
KDO1 160733Z 07002KT 02/02 A3008 RMK A01 T00240024  RH  100%=      5-min Rain = 0
KDO1 160734Z 07002KT 02/02 A3008 RMK A01 T00230023  RH  100%=      5-min Rain = 0
KDO1 160735Z 07002KT 02/02 A3008 RMK A01 T00220022  RH  100%=      5-min Rain = 0
KDO1 160736Z 06001KT 02/02 A3008 RMK A01 T00210021  RH  100%=      5-min Rain = 0
KDO1 160737Z 05001KT 02/02 A3008 RMK A01 T00200020  RH  100%=      5-min Rain = 0
KDO1 160738Z 05001KT 02/02 A3008 RMK A01 T00180018  RH  100%=      5-min Rain = 0
KDO1 160739Z 03001KT 02/02 A3008 RMK A01 T00160016  RH  100%=      5-min Rain = 0
KDO1 160740Z 03001KT 01/01 A3008 RMK A01 T00140013  RH  100%=      5-min Rain = 0
KDO1 160741Z 05001KT 01/01 A3008 RMK A01 T00120012  RH  100%=      5-min Rain = 0
KDO1 160742Z 05001KT 01/01 A3008 RMK A01 T00100010  RH  100%=      5-min Rain = 0
KDO1 160743Z 05001KT 01/01 A3008 RMK A01 T00090009  RH  100%=      5-min Rain = 0
KDO1 160744Z 05002KT 01/01 A3008 RMK A01 T00090008  RH  100%=      5-min Rain = 0
KDO1 160745Z 06002KT 01/01 A3008 RMK A01 T00090008  RH  100%=      5-min Rain = 0
KDO1 160746Z 05002KT 01/01 A3008 RMK A01 T00080008  RH  100%=      5-min Rain = 0
KDO1 160747Z 06002KT 01/01 A3008 RMK A01 T00090009  RH  100%=      5-min Rain = 0
KDO1 160748Z 07002KT 01/01 A3008 RMK A01 T00090009  RH  100%=      5-min Rain = 0
KDO1 160749Z 07002KT 01/01 A3008 RMK A01 T00100010  RH  100%=      5-min Rain = 0
KDO1 160750Z 08002KT 01/01 A3008 RMK A01 T00110010  RH  100%=      5-min Rain = 0
KDO1 160751Z 07002KT 01/01 A3008 RMK A01 T00110011  RH  100%=      5-min Rain = 0
KDO1 160752Z 06001KT 01/01 A3008 RMK A01 T00110011  RH  100%=      5-min Rain = 0
KDO1 160753Z 06001KT 01/01 A3008 RMK A01 T00110011  RH  100%=      5-min Rain = 0
KDO1 160754Z 05001KT 01/01 A3008 RMK A01 T00110010  RH  100%=      5-min Rain = 0
KDO1 160755Z 04001KT 01/01 A3008 RMK A01 T00100010  RH  100%=      5-min Rain = 0
KDO1 160756Z 04002KT 01/01 A3008 RMK A01 T00100010  RH  100%=      5-min Rain = 0
KDO1 160757Z 04002KT 01/01 A3008 RMK A01 T00100010  RH  100%=      5-min Rain = 0
KDO1 160758Z 04002KT 01/01 A3008 RMK A01 T00100010  RH  100%=      5-min Rain = 0
KDO1 160759Z 03002KT 01/01 A3008 RMK A01 T00100010  RH  100%=      5-min Rain = 0
KDO1 160800Z 02002KT 01/01 A3008 RMK A01 T00100010  RH  100%=      5-min Rain = 0
KDO1 160801Z 01002KT 01/01 A3008 RMK A01 T00110011  RH  100%=      5-min Rain = 0
KDO1 160802Z 01002KT 01/01 A3008 RMK A01 T00120011  RH  100%=      5-min Rain = 0
KDO1 160803Z 00001KT 01/01 A3009 RMK A01 T00120012  RH  100%=      5-min Rain = 0
KDO1 160804Z 00001KT 01/01 A3009 RMK A01 T00120012  RH  100%=      5-min Rain = 0
KDO1 160805Z 36001KT 01/01 A3009 RMK A01 T00130013  RH  100%=      5-min Rain = 0
KDO1 160806Z 36001KT 01/01 A3009 RMK A01 T00130013  RH  100%=      5-min Rain = 0
KDO1 160807Z 01000KT 01/01 A3009 RMK A01 T00130013  RH  100%=      5-min Rain = 0
KDO1 160808Z 34001KT 01/01 A3009 RMK A01 T00130013  RH  100%=      5-min Rain = 0
KDO1 160809Z 36001KT 01/01 A3009 RMK A01 T00130013  RH  100%=      5-min Rain = 0
KDO1 160810Z 35001KT 01/01 A3008 RMK A01 T00140014  RH  100%=      5-min Rain = 0
KDO1 160811Z 01001KT 01/01 A3008 RMK A01 T00140014  RH  100%=      5-min Rain = 0
KDO1 160812Z 04001KT 02/02 A3008 RMK A01 T00150015  RH  100%=      5-min Rain = 0
KDO1 160813Z 06001KT 02/02 A3008 RMK A01 T00150015  RH  100%=      5-min Rain = 0
KDO1 160814Z 08001KT 02/02 A3008 RMK A01 T00160015  RH  100%=      5-min Rain = 0
KDO1 160815Z 06002KT 02/02 A3008 RMK A01 T00160016  RH  100%=      5-min Rain = 0
KDO1 160816Z 06002KT 02/02 A3008 RMK A01 T00170017  RH  100%=      5-min Rain = 0
KDO1 160817Z 07002KT 02/02 A3008 RMK A01 T00170017  RH  100%=      5-min Rain = 0
KDO1 160818Z 07002KT 02/02 A3008 RMK A01 T00170017  RH  100%=      5-min Rain = 0
KDO1 160819Z 05001KT 02/02 A3008 RMK A01 T00170017  RH  100%=      5-min Rain = 0
KDO1 160820Z 06001KT 02/02 A3008 RMK A01 T00170017  RH  100%=      5-min Rain = 0
KDO1 160821Z 06001KT 02/02 A3008 RMK A01 T00170017  RH  100%=      5-min Rain = 0
KDO1 160822Z 06001KT 02/02 A3008 RMK A01 T00170017  RH  100%=      5-min Rain = 0
KDO1 160823Z 07002KT 02/02 A3008 RMK A01 T00150015  RH  100%=      5-min Rain = 0
KDO1 160824Z 07002KT 01/01 A3008 RMK A01 T00140013  RH  100%=      5-min Rain = 0
KDO1 160825Z 07002KT 01/01 A3008 RMK A01 T00120012  RH  100%=      5-min Rain = 0
KDO1 160826Z 06002KT 01/01 A3008 RMK A01 T00100010  RH  100%=      5-min Rain = 0
KDO1 160827Z 06002KT 01/01 A3008 RMK A01 T00090009  RH  100%=      5-min Rain = 0
KDO1 160828Z 06002KT 01/01 A3008 RMK A01 T00090009  RH  100%=      5-min Rain = 0
KDO1 160829Z 07001KT 01/01 A3008 RMK A01 T00090009  RH  100%=      5-min Rain = 0
KDO1 160830Z 07001KT 01/01 A3008 RMK A01 T00090009  RH  100%=      5-min Rain = 0
KDO1 160831Z 08001KT 01/01 A3008 RMK A01 T00100010  RH  100%=      5-min Rain = 0
KDO1 160832Z 08002KT 01/01 A3008 RMK A01 T00100010  RH  100%=      5-min Rain = 0
KDO1 160833Z 09002KT 01/01 A3008 RMK A01 T00110011  RH  100%=      5-min Rain = 0
KDO1 160834Z 08002KT 01/01 A3008 RMK A01 T00120012  RH  100%=      5-min Rain = 0
KDO1 160835Z 08002KT 01/01 A3008 RMK A01 T00120012  RH  100%=      5-min Rain = 0
KDO1 160836Z 08001KT 01/01 A3008 RMK A01 T00130013  RH  100%=      5-min Rain = 0
KDO1 160837Z 07001KT 01/01 A3008 RMK A01 T00130013  RH  100%=      5-min Rain = 0
KDO1 160838Z 09001KT 01/01 A3008 RMK A01 T00130013  RH  100%=      5-min Rain = 0
KDO1 160839Z 08001KT 01/01 A3008 RMK A01 T00130013  RH  100%=      5-min Rain = 0
KDO1 160840Z 07001KT 01/01 A3008 RMK A01 T00130013  RH  100%=      5-min Rain = 0
KDO1 160841Z 06001KT 01/01 A3008 RMK A01 T00130013  RH  100%=      5-min Rain = 0
KDO1 160842Z 04001KT 01/01 A3008 RMK A01 T00140013  RH  100%=      5-min Rain = 0
KDO1 160843Z 04001KT 01/01 A3008 RMK A01 T00140013  RH  100%=      5-min Rain = 0
KDO1 160844Z 03001KT 01/01 A3008 RMK A01 T00140014  RH  100%=      5-min Rain = 0
KDO1 160845Z 02001KT 01/01 A3008 RMK A01 T00140014  RH  100%=      5-min Rain = 0
KDO1 160846Z 02001KT 02/01 A3008 RMK A01 T00150014  RH  100%=      5-min Rain = 0
KDO1 160847Z 02001KT 02/02 A3008 RMK A01 T00150015  RH  100%=      5-min Rain = 0
KDO1 160848Z 02001KT 02/02 A3008 RMK A01 T00150015  RH  100%=      5-min Rain = 0
KDO1 160849Z 03001KT 02/02 A3009 RMK A01 T00150015  RH  100%=      5-min Rain = 0
KDO1 160850Z 04001KT 02/02 A3009 RMK A01 T00150015  RH  100%=      5-min Rain = 0
KDO1 160851Z 03001KT 02/02 A3009 RMK A01 T00150015  RH  100%=      5-min Rain = 0
KDO1 160852Z 05001KT 02/02 A3009 RMK A01 T00150015  RH  100%=      5-min Rain = 0
KDO1 160853Z 06002KT 02/02 A3008 RMK A01 T00150015  RH  100%=      5-min Rain = 0
KDO1 160854Z 05002KT 02/02 A3008 RMK A01 T00150015  RH  100%=      5-min Rain = 0
KDO1 160855Z 05001KT 01/01 A3008 RMK A01 T00140014  RH  100%=      5-min Rain = 0
KDO1 160856Z 06001KT 01/01 A3008 RMK A01 T00140014  RH  100%=      5-min Rain = 0
KDO1 160857Z 04001KT 01/01 A3008 RMK A01 T00140014  RH  100%=      5-min Rain = 0
KDO1 160858Z 04000KT 01/01 A3008 RMK A01 T00140014  RH  100%=      5-min Rain = 0
KDO1 160859Z 00000KT 01/01 A3008 RMK A01 T00140014  RH  100%=      5-min Rain = 0
KDO1 160900Z 00000KT 01/01 A3008 RMK A01 T00140013  RH  100%=      5-min Rain = 0
KDO1 160901Z 00000KT 01/01 A3008 RMK A01 T00140013  RH  100%=      5-min Rain = 0
KDO1 160902Z 00000KT 01/01 A3008 RMK A01 T00140014  RH  100%=      5-min Rain = 0
KDO1 160903Z 00000KT 01/01 A3008 RMK A01 T00140013  RH  100%=      5-min Rain = 0
KDO1 160904Z 00000KT 01/01 A3008 RMK A01 T00140014  RH  100%=      5-min Rain = 0
KDO1 160905Z 00000KT 01/01 A3008 RMK A01 T00140014  RH  100%=      5-min Rain = 0
KDO1 160906Z 00000KT 01/01 A3008 RMK A01 T00140014  RH  100%=      5-min Rain = 0
KDO1 160907Z 33000KT 02/01 A3008 RMK A01 T00150014  RH  100%=      5-min Rain = 0
KDO1 160908Z 00000KT 02/01 A3008 RMK A01 T00150014  RH  100%=      5-min Rain = 0
KDO1 160909Z 00000KT 02/02 A3008 RMK A01 T00150015  RH  100%=      5-min Rain = 0
KDO1 160910Z 00000KT 02/02 A3008 RMK A01 T00150015  RH  100%=      5-min Rain = 0
KDO1 160911Z 00000KT 02/02 A3008 RMK A01 T00150015  RH  100%=      5-min Rain = 0
KDO1 160912Z 00000KT 02/02 A3008 RMK A01 T00160015  RH  100%=      5-min Rain = 0
KDO1 160913Z 00000KT 02/02 A3008 RMK A01 T00160015  RH  100%=      5-min Rain = 0
KDO1 160914Z 00000KT 02/02 A3008 RMK A01 T00160016  RH  100%=      5-min Rain = 0
KDO1 160915Z 00000KT 02/02 A3008 RMK A01 T00160016  RH  100%=      5-min Rain = 0
KDO1 160916Z 07000KT 02/02 A3008 RMK A01 T00160016  RH  100%=      5-min Rain = 0
KDO1 160917Z 05001KT 02/02 A3008 RMK A01 T00160016  RH  100%=      5-min Rain = 0
KDO1 160918Z 08000KT 02/02 A3008 RMK A01 T00160016  RH  100%=      5-min Rain = 0
KDO1 160919Z 09000KT 02/02 A3008 RMK A01 T00160016  RH  100%=      5-min Rain = 0
KDO1 160920Z 00000KT 02/02 A3008 RMK A01 T00160016  RH  100%=      5-min Rain = 0
KDO1 160921Z 00000KT 02/02 A3008 RMK A01 T00160016  RH  100%=      5-min Rain = 0
KDO1 160922Z 00000KT 02/02 A3008 RMK A01 T00160016  RH  100%=      5-min Rain = 0
KDO1 160923Z 00000KT 02/02 A3008 RMK A01 T00160016  RH  100%=      5-min Rain = 0
KDO1 160924Z 05000KT 02/02 A3008 RMK A01 T00160016  RH  100%=      5-min Rain = 0
KDO1 160925Z 04001KT 02/02 A3008 RMK A01 T00160016  RH  100%=      5-min Rain = 0
KDO1 160926Z 04001KT 02/02 A3008 RMK A01 T00160016  RH  100%=      5-min Rain = 0
KDO1 160927Z 04001KT 02/02 A3008 RMK A01 T00160016  RH  100%=      5-min Rain = 0
KDO1 160928Z 04001KT 02/02 A3007 RMK A01 T00160016  RH  100%=      5-min Rain = 0
KDO1 160929Z 05001KT 02/02 A3007 RMK A01 T00160016  RH  100%=      5-min Rain = 0
KDO1 160930Z 04001KT 02/02 A3007 RMK A01 T00170016  RH  100%=      5-min Rain = 0
KDO1 160931Z 05001KT 02/02 A3007 RMK A01 T00160016  RH  100%=      5-min Rain = 0
KDO1 160932Z 06001KT 02/02 A3007 RMK A01 T00160016  RH  100%=      5-min Rain = 0
KDO1 160933Z 00000KT 02/02 A3007 RMK A01 T00160016  RH  100%=      5-min Rain = 0
KDO1 160934Z 00000KT 02/02 A3007 RMK A01 T00160016  RH  100%=      5-min Rain = 0
KDO1 160935Z 00000KT 02/02 A3008 RMK A01 T00160016  RH  100%=      5-min Rain = 0
KDO1 160936Z 00000KT 02/02 A3008 RMK A01 T00160016  RH  100%=      5-min Rain = 0
KDO1 160937Z 00000KT 02/02 A3008 RMK A01 T00160016  RH  100%=      5-min Rain = 0
KDO1 160938Z 00000KT 02/02 A3008 RMK A01 T00160016  RH  100%=      5-min Rain = 0
KDO1 160939Z 00000KT 02/02 A3008 RMK A01 T00160016  RH  100%=      5-min Rain = 0
KDO1 160940Z 16000KT 02/02 A3008 RMK A01 T00170016  RH  100%=      5-min Rain = 0
KDO1 160941Z 15001KT 02/02 A3008 RMK A01 T00170016  RH  100%=      5-min Rain = 0
KDO1 160942Z 16001KT 02/02 A3008 RMK A01 T00160016  RH  100%=      5-min Rain = 0
KDO1 160943Z 16001KT 02/02 A3008 RMK A01 T00160016  RH  100%=      5-min Rain = 0
KDO1 160944Z 15001KT 02/02 A3008 RMK A01 T00160016  RH  100%=      5-min Rain = 0
KDO1 160945Z 15001KT 02/02 A3008 RMK A01 T00160016  RH  100%=      5-min Rain = 0
KDO1 160946Z 16001KT 02/02 A3008 RMK A01 T00160016  RH  100%=      5-min Rain = 0
KDO1 160947Z 14001KT 02/02 A3008 RMK A01 T00160016  RH  100%=      5-min Rain = 0
KDO1 160948Z 14001KT 02/02 A3008 RMK A01 T00160016  RH  100%=      5-min Rain = 0
KDO1 160949Z 15000KT 02/02 A3008 RMK A01 T00160016  RH  100%=      5-min Rain = 0
KDO1 160950Z 15001KT 02/02 A3008 RMK A01 T00160016  RH  100%=      5-min Rain = 0
KDO1 160951Z 14001KT 02/02 A3008 RMK A01 T00160016  RH  100%=      5-min Rain = 0
KDO1 160952Z 15001KT 02/02 A3008 RMK A01 T00170016  RH  100%=      5-min Rain = 0
KDO1 160953Z 15001KT 02/02 A3008 RMK A01 T00160016  RH  100%=      5-min Rain = 0
KDO1 160954Z 15001KT 02/02 A3008 RMK A01 T00160016  RH  100%=      5-min Rain = 0
KDO1 160955Z 17001KT 02/02 A3008 RMK A01 T00160016  RH  100%=      5-min Rain = 0
KDO1 160956Z 18001KT 02/02 A3008 RMK A01 T00160016  RH  100%=      5-min Rain = 0
KDO1 160957Z 19000KT 02/02 A3008 RMK A01 T00160016  RH  100%=      5-min Rain = 0
KDO1 160958Z 21000KT 02/02 A3008 RMK A01 T00160016  RH  100%=      5-min Rain = 0
KDO1 160959Z 19001KT 02/02 A3008 RMK A01 T00170016  RH  100%=      5-min Rain = 0
KDO1 161000Z 22001KT 02/02 A3008 RMK A01 T00160016  RH  100%=      5-min Rain = 0
KDO1 161001Z 22000KT 02/02 A3008 RMK A01 T00170016  RH  100%=      5-min Rain = 0
KDO1 161002Z 21001KT 02/02 A3008 RMK A01 T00170016  RH  100%=      5-min Rain = 0
KDO1 161003Z 19002KT 02/02 A3008 RMK A01 T00170017  RH  100%=      5-min Rain = 0
KDO1 161004Z 18002KT 02/02 A3008 RMK A01 T00170016  RH  100%=      5-min Rain = 0
KDO1 161005Z 18002KT 02/02 A3008 RMK A01 T00170016  RH  100%=      5-min Rain = 0
KDO1 161006Z 17002KT 02/02 A3008 RMK A01 T00160016  RH  100%=      5-min Rain = 0
KDO1 161007Z 18003KT 02/02 A3008 RMK A01 T00160016  RH  100%=      5-min Rain = 0
KDO1 161008Z 18003KT 02/02 A3008 RMK A01 T00160015  RH  100%=      5-min Rain = 0
KDO1 161009Z 17003KT 02/02 A3008 RMK A01 T00150015  RH  100%=      5-min Rain = 0
KDO1 161010Z 18002KT 02/02 A3008 RMK A01 T00150015  RH  100%=      5-min Rain = 0
KDO1 161011Z 17002KT 02/01 A3008 RMK A01 T00150014  RH  100%=      5-min Rain = 0
KDO1 161012Z 15002KT 01/01 A3008 RMK A01 T00140014  RH  100%=      5-min Rain = 0
KDO1 161013Z 13002KT 01/01 A3008 RMK A01 T00140014  RH  100%=      5-min Rain = 0
KDO1 161014Z 12002KT 01/01 A3007 RMK A01 T00140014  RH  100%=      5-min Rain = 0
KDO1 161015Z 11001KT 01/01 A3008 RMK A01 T00140014  RH  100%=      5-min Rain = 0
KDO1 161016Z 11001KT 01/01 A3008 RMK A01 T00140014  RH  100%=      5-min Rain = 0
KDO1 161017Z 11001KT 01/01 A3007 RMK A01 T00140014  RH  100%=      5-min Rain = 0
KDO1 161018Z 00000KT 01/01 A3007 RMK A01 T00140014  RH  100%=      5-min Rain = 0
KDO1 161019Z 00000KT 01/01 A3007 RMK A01 T00130013  RH  100%=      5-min Rain = 0
KDO1 161020Z 00000KT 01/01 A3007 RMK A01 T00140013  RH  100%=      5-min Rain = 0
KDO1 161021Z 00000KT 01/01 A3007 RMK A01 T00140013  RH  100%=      5-min Rain = 0
KDO1 161022Z 00000KT 01/01 A3007 RMK A01 T00130013  RH  100%=      5-min Rain = 0
KDO1 161023Z 00000KT 01/01 A3007 RMK A01 T00130013  RH  100%=      5-min Rain = 0
KDO1 161024Z 00000KT 01/01 A3007 RMK A01 T00130013  RH  100%=      5-min Rain = 0
KDO1 161025Z 00000KT 01/01 A3007 RMK A01 T00130013  RH  100%=      5-min Rain = 0
KDO1 161026Z 00000KT 01/01 A3007 RMK A01 T00130013  RH  100%=      5-min Rain = 0
KDO1 161027Z 20001KT 01/01 A3007 RMK A01 T00130013  RH  100%=      5-min Rain = 0
KDO1 161028Z 20002KT 01/01 A3007 RMK A01 T00130013  RH  100%=      5-min Rain = 0
KDO1 161029Z 20002KT 01/01 A3007 RMK A01 T00130013  RH  100%=      5-min Rain = 0
KDO1 161030Z 21001KT 01/01 A3007 RMK A01 T00130013  RH  100%=      5-min Rain = 0
KDO1 161031Z 20001KT 01/01 A3007 RMK A01 T00130013  RH  100%=      5-min Rain = 0
KDO1 161032Z 23001KT 01/01 A3007 RMK A01 T00120012  RH  100%=      5-min Rain = 0
KDO1 161033Z 24001KT 01/01 A3007 RMK A01 T00130013  RH  100%=      5-min Rain = 0
KDO1 161034Z 22000KT 01/01 A3007 RMK A01 T00130012  RH  100%=      5-min Rain = 0
KDO1 161035Z 23000KT 01/01 A3007 RMK A01 T00130013  RH  100%=      5-min Rain = 0
KDO1 161036Z 00000KT 01/01 A3007 RMK A01 T00130012  RH  100%=      5-min Rain = 0
KDO1 161037Z 00000KT 01/01 A3007 RMK A01 T00120012  RH  100%=      5-min Rain = 0
KDO1 161038Z 00000KT 01/01 A3007 RMK A01 T00120012  RH  100%=      5-min Rain = 0
KDO1 161039Z 00000KT 01/01 A3007 RMK A01 T00120012  RH  100%=      5-min Rain = 0
KDO1 161040Z 00000KT 01/01 A3007 RMK A01 T00120012  RH  100%=      5-min Rain = 0
KDO1 161041Z 24000KT 01/01 A3007 RMK A01 T00120012  RH  100%=      5-min Rain = 0
KDO1 161042Z 26001KT 01/01 A3007 RMK A01 T00110011  RH  100%=      5-min Rain = 0
KDO1 161043Z 25001KT 01/01 A3007 RMK A01 T00110011  RH  100%=      5-min Rain = 0
KDO1 161044Z 25001KT 01/01 A3007 RMK A01 T00110011  RH  100%=      5-min Rain = 0
KDO1 161045Z 25001KT 01/01 A3007 RMK A01 T00110011  RH  100%=      5-min Rain = 0
KDO1 161046Z 25001KT 01/01 A3007 RMK A01 T00110011  RH  100%=      5-min Rain = 0
KDO1 161047Z 25000KT 01/01 A3007 RMK A01 T00110011  RH  100%=      5-min Rain = 0
KDO1 161048Z 00000KT 01/01 A3007 RMK A01 T00110011  RH  100%=      5-min Rain = 0
KDO1 161049Z 00000KT 01/01 A3007 RMK A01 T00110011  RH  100%=      5-min Rain = 0
KDO1 161050Z 00000KT 01/01 A3006 RMK A01 T00100010  RH  100%=      5-min Rain = 0
KDO1 161051Z 35000KT 01/01 A3006 RMK A01 T00100010  RH  100%=      5-min Rain = 0
KDO1 161052Z 34002KT 01/01 A3006 RMK A01 T00110010  RH  100%=      5-min Rain = 0
KDO1 161053Z 35001KT 01/01 A3006 RMK A01 T00100010  RH  100%=      5-min Rain = 0
KDO1 161054Z 01001KT 01/01 A3005 RMK A01 T00100010  RH  100%=      5-min Rain = 0
KDO1 161055Z 00001KT 01/01 A3005 RMK A01 T00100010  RH  100%=      5-min Rain = 0
KDO1 161056Z 00001KT 01/01 A3005 RMK A01 T00100010  RH  100%=      5-min Rain = 0
KDO1 161057Z 01001KT 01/01 A3005 RMK A01 T00100010  RH  100%=      5-min Rain = 0
KDO1 161058Z 02001KT 01/01 A3005 RMK A01 T00110010  RH  100%=      5-min Rain = 0
KDO1 161059Z 03002KT 01/01 A3005 RMK A01 T00110010  RH  100%=      5-min Rain = 0
KDO1 161100Z 04001KT 01/01 A3005 RMK A01 T00100010  RH  100%=      5-min Rain = 0
KDO1 161101Z 02001KT 01/01 A3005 RMK A01 T00100010  RH  100%=      5-min Rain = 0
KDO1 161102Z 02002KT 01/01 A3005 RMK A01 T00100010  RH  100%=      5-min Rain = 0
KDO1 161103Z 02001KT 01/01 A3005 RMK A01 T00100010  RH  100%=      5-min Rain = 0
KDO1 161104Z 02000KT 01/01 A3005 RMK A01 T00100010  RH  100%=      5-min Rain = 0
KDO1 161105Z 02001KT 01/01 A3005 RMK A01 T00100010  RH  100%=      5-min Rain = 0
KDO1 161106Z 02001KT 01/01 A3005 RMK A01 T00110010  RH  100%=      5-min Rain = 0
KDO1 161107Z 01001KT 01/01 A3005 RMK A01 T00100010  RH  100%=      5-min Rain = 0
KDO1 161108Z 02002KT 01/01 A3005 RMK A01 T00100010  RH  100%=      5-min Rain = 0
KDO1 161109Z 01002KT 01/01 A3005 RMK A01 T00100010  RH  100%=      5-min Rain = 0
KDO1 161110Z 01001KT 01/01 A3005 RMK A01 T00100010  RH  100%=      5-min Rain = 0
KDO1 161111Z 01001KT 01/01 A3005 RMK A01 T00100010  RH  100%=      5-min Rain = 0
KDO1 161112Z 02001KT 01/01 A3005 RMK A01 T00100010  RH  100%=      5-min Rain = 0
KDO1 161113Z 02000KT 01/01 A3005 RMK A01 T00110011  RH  100%=      5-min Rain = 0
KDO1 161114Z 02001KT 01/01 A3005 RMK A01 T00110011  RH  100%=      5-min Rain = 0
KDO1 161115Z 03000KT 01/01 A3005 RMK A01 T00110011  RH  100%=      5-min Rain = 0
KDO1 161116Z 00000KT 01/01 A3005 RMK A01 T00110011  RH  100%=      5-min Rain = 0
KDO1 161117Z 06000KT 01/01 A3005 RMK A01 T00110011  RH  100%=      5-min Rain = 0
KDO1 161118Z 00000KT 01/01 A3005 RMK A01 T00110011  RH  100%=      5-min Rain = 0
KDO1 161119Z 00000KT 01/01 A3005 RMK A01 T00110011  RH  100%=      5-min Rain = 0
KDO1 161120Z 00000KT 01/01 A3005 RMK A01 T00110011  RH  100%=      5-min Rain = 0
KDO1 161121Z 00000KT 01/01 A3005 RMK A01 T00110011  RH  100%=      5-min Rain = 0
KDO1 161122Z 00000KT 01/01 A3005 RMK A01 T00110011  RH  100%=      5-min Rain = 0
KDO1 161123Z 00000KT 01/01 A3005 RMK A01 T00110011  RH  100%=      5-min Rain = 0
KDO1 161124Z 03001KT 01/01 A3005 RMK A01 T00120011  RH  100%=      5-min Rain = 0
KDO1 161125Z 03001KT 01/01 A3005 RMK A01 T00120012  RH  100%=      5-min Rain = 0
KDO1 161126Z 03001KT 01/01 A3005 RMK A01 T00120012  RH  100%=      5-min Rain = 0
KDO1 161127Z 03000KT 01/01 A3005 RMK A01 T00120012  RH  100%=      5-min Rain = 0
KDO1 161128Z 00001KT 01/01 A3006 RMK A01 T00120012  RH  100%=      5-min Rain = 0
KDO1 161129Z 36001KT 01/01 A3006 RMK A01 T00120012  RH  100%=      5-min Rain = 0
KDO1 161130Z 01001KT 01/01 A3006 RMK A01 T00120012  RH  100%=      5-min Rain = 0
KDO1 161131Z 01002KT 01/01 A3006 RMK A01 T00110011  RH  100%=      5-min Rain = 0
KDO1 161132Z 01002KT 01/01 A3006 RMK A01 T00110011  RH  100%=      5-min Rain = 0
KDO1 161133Z 01003KT 01/01 A3005 RMK A01 T00110010  RH  100%=      5-min Rain = 0
KDO1 161134Z 00002KT 01/01 A3005 RMK A01 T00100010  RH  100%=      5-min Rain = 0
KDO1 161135Z 00002KT 01/01 A3005 RMK A01 T00090009  RH  100%=      5-min Rain = 0
KDO1 161136Z 36002KT 01/01 A3005 RMK A01 T00090009  RH  100%=      5-min Rain = 0
KDO1 161137Z 36002KT 01/01 A3005 RMK A01 T00090009  RH  100%=      5-min Rain = 0
KDO1 161138Z 35002KT 01/01 A3005 RMK A01 T00090008  RH  100%=      5-min Rain = 0
KDO1 161139Z 34001KT 01/01 A3005 RMK A01 T00090008  RH  100%=      5-min Rain = 0
KDO1 161140Z 34002KT 01/01 A3005 RMK A01 T00090008  RH  100%=      5-min Rain = 0
KDO1 161141Z 34002KT 01/01 A3006 RMK A01 T00080008  RH  100%=      5-min Rain = 0
KDO1 161142Z 34002KT 01/01 A3006 RMK A01 T00080008  RH  100%=      5-min Rain = 0
KDO1 161143Z 33001KT 01/01 A3006 RMK A01 T00080007  RH  100%=      5-min Rain = 0
KDO1 161144Z 34000KT 01/01 A3006 RMK A01 T00070007  RH  100%=      5-min Rain = 0
KDO1 161145Z 34000KT 01/01 A3006 RMK A01 T00070007  RH  100%=      5-min Rain = 0
KDO1 161146Z 34001KT 01/01 A3006 RMK A01 T00070007  RH  100%=      5-min Rain = 0
KDO1 161147Z 33002KT 01/01 A3006 RMK A01 T00070007  RH  100%=      5-min Rain = 0
KDO1 161148Z 33003KT 01/01 A3006 RMK A01 T00070006  RH  100%=      5-min Rain = 0
KDO1 161149Z 34003KT 01/01 A3006 RMK A01 T00060006  RH  100%=      5-min Rain = 0
KDO1 161150Z 34003KT 01/01 A3006 RMK A01 T00070006  RH  100%=      5-min Rain = 0
KDO1 161151Z 34003KT 01/01 A3006 RMK A01 T00060006  RH  100%=      5-min Rain = 0
KDO1 161152Z 35002KT 01/01 A3006 RMK A01 T00060006  RH  100%=      5-min Rain = 0
KDO1 161153Z 35001KT 01/01 A3006 RMK A01 T00060006  RH  100%=      5-min Rain = 0
KDO1 161154Z 35001KT 01/01 A3006 RMK A01 T00050005  RH  100%=      5-min Rain = 0
KDO1 161155Z 35001KT 01/01 A3006 RMK A01 T00050005  RH  100%=      5-min Rain = 0
KDO1 161156Z 35001KT 01/01 A3006 RMK A01 T00050005  RH  100%=      5-min Rain = 0
KDO1 161157Z 34001KT 01/01 A3006 RMK A01 T00050005  RH  100%=      5-min Rain = 0
KDO1 161158Z 33002KT 01/01 A3006 RMK A01 T00050005  RH  100%=      5-min Rain = 0
KDO1 161159Z 34002KT 01/01 A3006 RMK A01 T00050005  RH  100%=      5-min Rain = 0
KDO1 161200Z 35002KT 01/01 A3006 RMK A01 T00050005  RH  100%=      5-min Rain = 0
KDO1 161201Z 00002KT 00/00 A3006 RMK A01 T00040004  RH  100%=      5-min Rain = 0
KDO1 161202Z 00003KT 00/00 A3006 RMK A01 T00040004  RH  100%=      5-min Rain = 0
KDO1 161203Z 00003KT 00/00 A3006 RMK A01 T00040004  RH  100%=      5-min Rain = 0
KDO1 161204Z 00002KT 00/00 A3006 RMK A01 T00040003  RH  100%=      5-min Rain = 0
KDO1 161205Z 00003KT 00/00 A3006 RMK A01 T00030003  RH  100%=      5-min Rain = 0
KDO1 161206Z 36003KT 00/00 A3006 RMK A01 T00030002  RH  100%=      5-min Rain = 0
KDO1 161207Z 35003KT 00/00 A3006 RMK A01 T00030002  RH  100%=      5-min Rain = 0
KDO1 161208Z 35003KT 00/00 A3006 RMK A01 T00020002  RH  100%=      5-min Rain = 0
KDO1 161209Z 35003KT 00/00 A3006 RMK A01 T00020002  RH  100%=      5-min Rain = 0
KDO1 161210Z 35003KT 00/00 A3006 RMK A01 T00010001  RH  100%=      5-min Rain = 0
KDO1 161211Z 35003KT 00/00 A3006 RMK A01 T00010001  RH  100%=      5-min Rain = 0
KDO1 161212Z 35003KT 00/00 A3006 RMK A01 T00010001  RH  100%=      5-min Rain = 0
KDO1 161213Z 35003KT 00/00 A3006 RMK A01 T00010000  RH  100%=      5-min Rain = 0
KDO1 161214Z 35003KT 00/00 A3006 RMK A01 T00000000  RH  100%=      5-min Rain = 0
KDO1 161215Z 35004KT 00/00 A3006 RMK A01 T00000000  RH  100%=      5-min Rain = 0
KDO1 161216Z 34004KT 00/00 A3006 RMK A01 T00-000-0  RH  100%=      5-min Rain = 0
KDO1 161217Z 34003KT 00/00 A3006 RMK A01 T00-000-0  RH  100%=      5-min Rain = 0
KDO1 161218Z 35003KT M00/M00 A3006 RMK A01 T10011001  RH  100%=      5-min Rain = 0
KDO1 161219Z 35004KT 00/00 A3006 RMK A01 T00-000-1  RH  100%=      5-min Rain = 0
KDO1 161220Z 36004KT M00/M00 A3006 RMK A01 T10011001  RH  100%=      5-min Rain = 0
KDO1 161221Z 00004KT M00/M00 A3006 RMK A01 T10011001  RH  100%=      5-min Rain = 0
KDO1 161222Z 00003KT M00/M00 A3006 RMK A01 T10011001  RH  100%=      5-min Rain = 0
KDO1 161223Z 00003KT M00/M00 A3006 RMK A01 T10011001  RH  100%=      5-min Rain = 0
KDO1 161224Z 00003KT M00/M00 A3006 RMK A01 T10011001  RH  100%=      5-min Rain = 0
KDO1 161225Z 36003KT M00/M00 A3006 RMK A01 T10011001  RH  100%=      5-min Rain = 0
KDO1 161226Z 00003KT M00/M00 A3006 RMK A01 T10011001  RH  100%=      5-min Rain = 0
KDO1 161227Z 00003KT M00/M00 A3006 RMK A01 T10011001  RH  100%=      5-min Rain = 0
KDO1 161228Z 00003KT M00/M00 A3006 RMK A01 T10011001  RH  100%=      5-min Rain = 0
KDO1 161229Z 00003KT M00/M00 A3006 RMK A01 T10011001  RH  100%=      5-min Rain = 0
KDO1 161230Z 01003KT M00/M00 A3006 RMK A01 T10011001  RH  100%=      5-min Rain = 0
KDO1 161231Z 01003KT M00/M00 A3006 RMK A01 T10011001  RH  100%=      5-min Rain = 0
KDO1 161232Z 01002KT M00/M00 A3005 RMK A01 T10011001  RH  100%=      5-min Rain = 0
KDO1 161233Z 01003KT 00/00 A3005 RMK A01 T00-000-1  RH  100%=      5-min Rain = 0
KDO1 161234Z 01003KT M00/M00 A3005 RMK A01 T10011001  RH  100%=      5-min Rain = 0
KDO1 161235Z 01002KT M00/M00 A3005 RMK A01 T10011001  RH  100%=      5-min Rain = 0
KDO1 161236Z 02002KT M00/M00 A3005 RMK A01 T10011001  RH  100%=      5-min Rain = 0
KDO1 161237Z 01003KT M00/M00 A3005 RMK A01 T10011001  RH  100%=      5-min Rain = 0
KDO1 161238Z 01003KT M00/M00 A3005 RMK A01 T10011001  RH  100%=      5-min Rain = 0
KDO1 161239Z 01003KT M00/M00 A3005 RMK A01 T10011001  RH  100%=      5-min Rain = 0
KDO1 161240Z 01003KT M00/M00 A3005 RMK A01 T10011001  RH  100%=      5-min Rain = 0
KDO1 161241Z 02003KT 00/00 A3005 RMK A01 T00-000-1  RH  100%=      5-min Rain = 0
KDO1 161242Z 02002KT M00/M00 A3005 RMK A01 T10011001  RH  100%=      5-min Rain = 0
KDO1 161243Z 02002KT M00/M00 A3005 RMK A01 T10011001  RH  100%=      5-min Rain = 0
KDO1 161244Z 01002KT M00/M00 A3005 RMK A01 T10011001  RH  100%=      5-min Rain = 0
KDO1 161245Z 01002KT M00/M00 A3006 RMK A01 T10011002  RH  100%=      5-min Rain = 0
KDO1 161246Z 01003KT M00/M00 A3006 RMK A01 T10011002  RH  100%=      5-min Rain = 0
KDO1 161247Z 01003KT M00/M00 A3006 RMK A01 T10011002  RH  100%=      5-min Rain = 0
KDO1 161248Z 01003KT M00/M00 A3006 RMK A01 T10011002  RH  100%=      5-min Rain = 0
KDO1 161249Z 01003KT M00/M00 A3006 RMK A01 T10021002  RH  100%=      5-min Rain = 0
KDO1 161250Z 00003KT M00/M00 A3006 RMK A01 T10021002  RH  100%=      5-min Rain = 0
KDO1 161251Z 00003KT M00/M00 A3006 RMK A01 T10021002  RH  100%=      5-min Rain = 0
KDO1 161252Z 01003KT M00/M00 A3006 RMK A01 T10021002  RH  100%=      5-min Rain = 0
KDO1 161253Z 01002KT M00/M00 A3006 RMK A01 T10021002  RH  100%=      5-min Rain = 0
KDO1 161254Z 36002KT M00/M00 A3006 RMK A01 T10021002  RH  100%=      5-min Rain = 0
KDO1 161255Z 36002KT M00/M00 A3006 RMK A01 T10021002  RH  100%=      5-min Rain = 0
KDO1 161256Z 01001KT M00/M00 A3006 RMK A01 T10021002  RH  100%=      5-min Rain = 0
KDO1 161257Z 02001KT M00/M00 A3006 RMK A01 T10021003  RH  100%=      5-min Rain = 0
KDO1 161258Z 04001KT M00/M00 A3006 RMK A01 T10031003  RH  100%=      5-min Rain = 0
KDO1 161259Z 03001KT M00/M00 A3006 RMK A01 T10031003  RH  100%=      5-min Rain = 0
KDO1 161300Z 03001KT M00/M00 A3007 RMK A01 T10021003  RH  100%=      5-min Rain = 0
KDO1 161301Z 01001KT M00/M00 A3007 RMK A01 T10031003  RH  100%=      5-min Rain = 0
KDO1 161302Z 01000KT M00/M00 A3007 RMK A01 T10031003  RH  100%=      5-min Rain = 0
KDO1 161303Z 00000KT M00/M00 A3007 RMK A01 T10031003  RH  100%=      5-min Rain = 0
KDO1 161304Z 03000KT M00/M00 A3007 RMK A01 T10031003  RH  100%=      5-min Rain = 0
KDO1 161305Z 04000KT M00/M00 A3007 RMK A01 T10031003  RH  100%=      5-min Rain = 0
KDO1 161306Z 04001KT M00/M00 A3007 RMK A01 T10031003  RH  100%=      5-min Rain = 0
KDO1 161307Z 05001KT M00/M00 A3007 RMK A01 T10031003  RH  100%=      5-min Rain = 0
KDO1 161308Z 07001KT M00/M00 A3007 RMK A01 T10031003  RH  100%=      5-min Rain = 0
KDO1 161309Z 09001KT M00/M00 A3007 RMK A01 T10031004  RH  100%=      5-min Rain = 0
KDO1 161310Z 09000KT M00/M00 A3007 RMK A01 T10031004  RH  100%=      5-min Rain = 0
KDO1 161311Z 00000KT M00/M00 A3007 RMK A01 T10031004  RH  100%=      5-min Rain = 0
KDO1 161312Z 00000KT M00/M00 A3007 RMK A01 T10031003  RH  100%=      5-min Rain = 0
KDO1 161313Z 00000KT M00/M00 A3007 RMK A01 T10041004  RH  100%=      5-min Rain = 0
KDO1 161314Z 00000KT M00/M00 A3007 RMK A01 T10031003  RH  100%=      5-min Rain = 0
KDO1 161315Z 00000KT M00/M00 A3007 RMK A01 T10031004  RH  100%=      5-min Rain = 0
KDO1 161316Z 00000KT M00/M00 A3007 RMK A01 T10031003  RH  100%=      5-min Rain = 0
KDO1 161317Z 00000KT M00/M00 A3007 RMK A01 T10031003  RH  100%=      5-min Rain = 0
KDO1 161318Z 00000KT M00/M00 A3007 RMK A01 T10031003  RH  100%=      5-min Rain = 0
KDO1 161319Z 00000KT M00/M00 A3007 RMK A01 T10041004  RH  100%=      5-min Rain = 0
KDO1 161320Z 08000KT M00/M00 A3007 RMK A01 T10041004  RH  100%=      5-min Rain = 0
KDO1 161321Z 07001KT M00/M00 A3006 RMK A01 T10041004  RH  100%=      5-min Rain = 0
KDO1 161322Z 07001KT M00/M00 A3006 RMK A01 T10041004  RH  100%=      5-min Rain = 0
KDO1 161323Z 07001KT M00/M01 A3006 RMK A01 T10041005  RH  100%=      5-min Rain = 0
KDO1 161324Z 09001KT M00/M01 A3006 RMK A01 T10041005  RH  100%=      5-min Rain = 0
KDO1 161325Z 09001KT M00/M00 A3006 RMK A01 T10041004  RH  100%=      5-min Rain = 0
KDO1 161326Z 10001KT M00/M00 A3006 RMK A01 T10041004  RH  100%=      5-min Rain = 0
KDO1 161327Z 10001KT M01/M01 A3006 RMK A01 T10051005  RH  100%=      5-min Rain = 0
KDO1 161328Z 09002KT M01/M01 A3006 RMK A01 T10051005  RH  100%=      5-min Rain = 0
KDO1 161329Z 08001KT M01/M01 A3006 RMK A01 T10051005  RH  100%=      5-min Rain = 0
KDO1 161330Z 06001KT M01/M01 A3006 RMK A01 T10051005  RH  100%=      5-min Rain = 0
KDO1 161331Z 04001KT M01/M01 A3007 RMK A01 T10051005  RH  100%=      5-min Rain = 0
KDO1 161332Z 03001KT M01/M01 A3007 RMK A01 T10051005  RH  100%=      5-min Rain = 0
KDO1 161333Z 00001KT M01/M01 A3007 RMK A01 T10051005  RH  100%=      5-min Rain = 0
KDO1 161334Z 02001KT M01/M01 A3007 RMK A01 T10051005  RH  100%=      5-min Rain = 0
KDO1 161335Z 02000KT M01/M01 A3007 RMK A01 T10051005  RH  100%=      5-min Rain = 0
KDO1 161336Z 00000KT M01/M01 A3007 RMK A01 T10051005  RH  100%=      5-min Rain = 0
KDO1 161337Z 00000KT M01/M01 A3007 RMK A01 T10051005  RH  100%=      5-min Rain = 0
KDO1 161338Z 00000KT M01/M01 A3007 RMK A01 T10051005  RH  100%=      5-min Rain = 0
KDO1 161339Z 00000KT M01/M01 A3007 RMK A01 T10051005  RH  100%=      5-min Rain = 0
KDO1 161340Z 31000KT M01/M01 A3007 RMK A01 T10051005  RH  100%=      5-min Rain = 0
KDO1 161341Z 31000KT M01/M01 A3007 RMK A01 T10051005  RH  100%=      5-min Rain = 0
KDO1 161342Z 32000KT M01/M01 A3007 RMK A01 T10051005  RH  100%=      5-min Rain = 0
KDO1 161343Z 32000KT M01/M01 A3007 RMK A01 T10051005  RH  100%=      5-min Rain = 0
KDO1 161344Z 00000KT M01/M01 A3007 RMK A01 T10051005  RH  100%=      5-min Rain = 0
KDO1 161345Z 00000KT M01/M01 A3007 RMK A01 T10051005  RH  100%=      5-min Rain = 0
KDO1 161346Z 00000KT M01/M01 A3007 RMK A01 T10051005  RH  100%=      5-min Rain = 0
KDO1 161347Z 00000KT M01/M01 A3007 RMK A01 T10051005  RH  100%=      5-min Rain = 0
KDO1 161348Z 00000KT M01/M01 A3006 RMK A01 T10051005  RH  100%=      5-min Rain = 0
KDO1 161349Z 03000KT M01/M01 A3006 RMK A01 T10051005  RH  100%=      5-min Rain = 0
KDO1 161350Z 03000KT M01/M01 A3006 RMK A01 T10051005  RH  100%=      5-min Rain = 0
KDO1 161351Z 00000KT M01/M01 A3006 RMK A01 T10051005  RH  100%=      5-min Rain = 0
KDO1 161352Z 00000KT M01/M01 A3006 RMK A01 T10061006  RH  100%=      5-min Rain = 0
KDO1 161353Z 00000KT M01/M01 A3006 RMK A01 T10061006  RH  100%=      5-min Rain = 0
KDO1 161354Z 00000KT M01/M01 A3006 RMK A01 T10061006  RH  100%=      5-min Rain = 0
KDO1 161355Z 00000KT M01/M01 A3006 RMK A01 T10061006  RH  100%=      5-min Rain = 0
KDO1 161356Z 00000KT M01/M01 A3006 RMK A01 T10061006  RH  100%=      5-min Rain = 0
KDO1 161357Z 00000KT M01/M01 A3006 RMK A01 T10061006  RH  100%=      5-min Rain = 0
KDO1 161358Z 00000KT M01/M01 A3006 RMK A01 T10061006  RH  100%=      5-min Rain = 0
KDO1 161359Z 36001KT M01/M01 A3006 RMK A01 T10061006  RH  100%=      5-min Rain = 0
KDO1 161400Z 35002KT M01/M01 A3006 RMK A01 T10061006  RH  100%=      5-min Rain = 0
KDO1 161401Z 35003KT M01/M01 A3006 RMK A01 T10051006  RH  100%=      5-min Rain = 0
KDO1 161402Z 35003KT M01/M01 A3006 RMK A01 T10061006  RH  100%=      5-min Rain = 0
KDO1 161403Z 34003KT M01/M01 A3006 RMK A01 T10061006  RH  100%=      5-min Rain = 0
KDO1 161404Z 35003KT M01/M01 A3007 RMK A01 T10051005  RH  100%=      5-min Rain = 0
KDO1 161405Z 34002KT M01/M01 A3007 RMK A01 T10051006  RH  100%=      5-min Rain = 0
KDO1 161406Z 36002KT M01/M01 A3007 RMK A01 T10061006  RH  100%=      5-min Rain = 0
KDO1 161407Z 01001KT M01/M01 A3006 RMK A01 T10061006  RH  100%=      5-min Rain = 0
KDO1 161408Z 03001KT M01/M01 A3006 RMK A01 T10061006  RH  100%=      5-min Rain = 0
KDO1 161409Z 02001KT M01/M01 A3006 RMK A01 T10061006  RH  100%=      5-min Rain = 0
KDO1 161410Z 02001KT M01/M01 A3006 RMK A01 T10061006  RH  100%=      5-min Rain = 0
KDO1 161411Z 02001KT M01/M01 A3006 RMK A01 T10061006  RH  100%=      5-min Rain = 0
KDO1 161412Z 02001KT M01/M01 A3006 RMK A01 T10061006  RH  100%=      5-min Rain = 0
KDO1 161413Z 01000KT M01/M01 A3006 RMK A01 T10061006  RH  100%=      5-min Rain = 0
KDO1 161414Z 36000KT M01/M01 A3006 RMK A01 T10061006  RH  100%=      5-min Rain = 0
KDO1 161415Z 35000KT M01/M01 A3006 RMK A01 T10061006  RH  100%=      5-min Rain = 0
KDO1 161416Z 00000KT M01/M01 A3006 RMK A01 T10061006  RH  100%=      5-min Rain = 0
KDO1 161417Z 00000KT M01/M01 A3006 RMK A01 T10061006  RH  100%=      5-min Rain = 0
KDO1 161418Z 35001KT M01/M01 A3006 RMK A01 T10061006  RH  100%=      5-min Rain = 0
KDO1 161419Z 35001KT M01/M01 A3006 RMK A01 T10061006  RH  100%=      5-min Rain = 0
KDO1 161420Z 34001KT M01/M01 A3006 RMK A01 T10051006  RH  100%=      5-min Rain = 0
KDO1 161421Z 34001KT M01/M01 A3006 RMK A01 T10051005  RH  100%=      5-min Rain = 0
KDO1 161422Z 35001KT M01/M01 A3006 RMK A01 T10051005  RH  100%=      5-min Rain = 0
KDO1 161423Z 32001KT M01/M01 A3006 RMK A01 T10051005  RH  100%=      5-min Rain = 0
KDO1 161424Z 33001KT M01/M01 A3006 RMK A01 T10051005  RH  100%=      5-min Rain = 0
KDO1 161425Z 31000KT M01/M01 A3006 RMK A01 T10051005  RH  100%=      5-min Rain = 0
KDO1 161426Z 32000KT M00/M01 A3006 RMK A01 T10041005  RH  100%=      5-min Rain = 0
KDO1 161427Z 32001KT M00/M00 A3006 RMK A01 T10041004  RH  100%=      5-min Rain = 0
KDO1 161428Z 32001KT M00/M00 A3006 RMK A01 T10041004  RH  100%=      5-min Rain = 0
KDO1 161429Z 31001KT M01/M01 A3006 RMK A01 T10051005  RH  100%=      5-min Rain = 0
KDO1 161430Z 31002KT M01/M01 A3006 RMK A01 T10051005  RH  100%=      5-min Rain = 0
KDO1 161431Z 31001KT M01/M01 A3006 RMK A01 T10051005  RH  100%=      5-min Rain = 0
KDO1 161432Z 32001KT M01/M01 A3006 RMK A01 T10051005  RH  100%=      5-min Rain = 0
KDO1 161433Z 33001KT M01/M01 A3006 RMK A01 T10051005  RH  100%=      5-min Rain = 0
KDO1 161434Z 35000KT M01/M01 A3006 RMK A01 T10051005  RH  100%=      5-min Rain = 0
KDO1 161435Z 36001KT M01/M01 A3006 RMK A01 T10051005  RH  100%=      5-min Rain = 0
KDO1 161436Z 00001KT M01/M01 A3006 RMK A01 T10051005  RH  100%=      5-min Rain = 0
KDO1 161437Z 03000KT M01/M01 A3006 RMK A01 T10051005  RH  100%=      5-min Rain = 0
KDO1 161438Z 03000KT M01/M01 A3006 RMK A01 T10051005  RH  100%=      5-min Rain = 0
KDO1 161439Z 03000KT M01/M01 A3006 RMK A01 T10051005  RH  100%=      5-min Rain = 0
KDO1 161440Z 00001KT M01/M01 A3006 RMK A01 T10051005  RH  100%=      5-min Rain = 0
KDO1 161441Z 35001KT M00/M01 A3006 RMK A01 T10041005  RH  100%=      5-min Rain = 0
KDO1 161442Z 34001KT M01/M01 A3006 RMK A01 T10051005  RH  100%=      5-min Rain = 0
KDO1 161443Z 34001KT M01/M01 A3007 RMK A01 T10051005  RH  100%=      5-min Rain = 0
KDO1 161444Z 33002KT M01/M01 A3007 RMK A01 T10051005  RH  100%=      5-min Rain = 0
KDO1 161445Z 32001KT M01/M01 A3007 RMK A01 T10051005  RH  100%=      5-min Rain = 0
KDO1 161446Z 30000KT M01/M01 A3007 RMK A01 T10051005  RH  100%=      5-min Rain = 0
KDO1 161447Z 00000KT M00/M01 A3007 RMK A01 T10041005  RH  100%=      5-min Rain = 0
KDO1 161448Z 00000KT M00/M00 A3007 RMK A01 T10041004  RH  100%=      5-min Rain = 0
KDO1 161449Z 00000KT M00/M00 A3007 RMK A01 T10031003  RH  100%=      5-min Rain = 0
KDO1 161450Z 00000KT M00/M00 A3007 RMK A01 T10031003  RH  100%=      5-min Rain = 0
KDO1 161451Z 21000KT M00/M00 A3007 RMK A01 T10031003  RH  100%=      5-min Rain = 0
KDO1 161452Z 24000KT M00/M00 A3007 RMK A01 T10031003  RH  100%=      5-min Rain = 0
KDO1 161453Z 24001KT M00/M00 A3007 RMK A01 T10021002  RH  100%=      5-min Rain = 0
KDO1 161454Z 24000KT M00/M00 A3007 RMK A01 T10021002  RH  100%=      5-min Rain = 0
KDO1 161455Z 27001KT M00/M00 A3007 RMK A01 T10021002  RH  100%=      5-min Rain = 0
KDO1 161456Z 28001KT M00/M00 A3007 RMK A01 T10021002  RH  100%=      5-min Rain = 0
KDO1 161457Z 29001KT M00/M00 A3007 RMK A01 T10021002  RH  100%=      5-min Rain = 0
KDO1 161458Z 28000KT M00/M00 A3007 RMK A01 T10021002  RH  100%=      5-min Rain = 0
KDO1 161459Z 27000KT M00/M00 A3007 RMK A01 T10021002  RH  100%=      5-min Rain = 0
KDO1 161500Z 00000KT M00/M00 A3007 RMK A01 T10021002  RH  100%=      5-min Rain = 0
KDO1 161501Z 00000KT M00/M00 A3007 RMK A01 T10021003  RH  100%=      5-min Rain = 0
KDO1 161502Z 00000KT M00/M00 A3007 RMK A01 T10031003  RH  100%=      5-min Rain = 0
KDO1 161503Z 00000KT M00/M00 A3007 RMK A01 T10021003  RH  100%=      5-min Rain = 0
KDO1 161504Z 00000KT M00/M00 A3007 RMK A01 T10021002  RH  100%=      5-min Rain = 0
KDO1 161505Z 00000KT M00/M00 A3007 RMK A01 T10011001  RH  100%=      5-min Rain = 0
KDO1 161506Z 00000KT M00/M00 A3007 RMK A01 T10011001  RH  100%=      5-min Rain = 0
KDO1 161507Z 00000KT 00/00 A3007 RMK A01 T00-000-0  RH  100%=      5-min Rain = 0
KDO1 161508Z 00000KT 00/00 A3007 RMK A01 T00000000  RH  100%=      5-min Rain = 0
KDO1 161509Z 00000KT 00/00 A3007 RMK A01 T00000000  RH  100%=      5-min Rain = 0
KDO1 161510Z 00000KT 00/00 A3007 RMK A01 T00010000  RH  100%=      5-min Rain = 0
KDO1 161511Z 00000KT 00/00 A3007 RMK A01 T00010000  RH  100%=      5-min Rain = 0
KDO1 161512Z 00000KT 00/00 A3007 RMK A01 T00010001  RH  100%=      5-min Rain = 0
KDO1 161513Z 00000KT 00/00 A3007 RMK A01 T00020002  RH  100%=      5-min Rain = 0
KDO1 161514Z 00000KT 00/00 A3007 RMK A01 T00030003  RH  100%=      5-min Rain = 0
KDO1 161515Z 00000KT 00/00 A3007 RMK A01 T00040004  RH  100%=      5-min Rain = 0
KDO1 161516Z 00000KT 01/01 A3007 RMK A01 T00050005  RH  100%=      5-min Rain = 0
KDO1 161517Z 20000KT 01/01 A3007 RMK A01 T00070007  RH  100%=      5-min Rain = 0
KDO1 161518Z 15001KT 01/01 A3007 RMK A01 T00080008  RH  100%=      5-min Rain = 0
KDO1 161519Z 00000KT 01/01 A3007 RMK A01 T00090009  RH  100%=      5-min Rain = 0
KDO1 161520Z 15001KT 01/01 A3007 RMK A01 T00100010  RH  100%=      5-min Rain = 0
KDO1 161521Z 15000KT 01/01 A3007 RMK A01 T00110010  RH  100%=      5-min Rain = 0
KDO1 161522Z 19000KT 01/01 A3007 RMK A01 T00110011  RH  100%=      5-min Rain = 0
KDO1 161523Z 20001KT 01/01 A3007 RMK A01 T00120012  RH  100%=      5-min Rain = 0
KDO1 161524Z 20001KT 01/01 A3007 RMK A01 T00120012  RH  100%=      5-min Rain = 0
KDO1 161525Z 21001KT 01/01 A3007 RMK A01 T00120012  RH  100%=      5-min Rain = 0
KDO1 161526Z 19001KT 01/01 A3007 RMK A01 T00110010  RH  100%=      5-min Rain = 0
KDO1 161527Z 18000KT 01/01 A3006 RMK A01 T00100010  RH  100%=      5-min Rain = 0
KDO1 161528Z 18001KT 01/01 A3006 RMK A01 T00100009  RH  100%=      5-min Rain = 0
KDO1 161529Z 17001KT 01/01 A3006 RMK A01 T00100009  RH  100%=      5-min Rain = 0
KDO1 161530Z 17000KT 01/01 A3007 RMK A01 T00090009  RH  100%=      5-min Rain = 0
KDO1 161531Z 17000KT 01/01 A3007 RMK A01 T00090009  RH  100%=      5-min Rain = 0
KDO1 161532Z 14001KT 01/01 A3007 RMK A01 T00100009  RH  100%=      5-min Rain = 0
KDO1 161533Z 13001KT 01/01 A3007 RMK A01 T00100010  RH  100%=      5-min Rain = 0
KDO1 161534Z 12000KT 01/01 A3007 RMK A01 T00110010  RH  100%=      5-min Rain = 0
KDO1 161535Z 18000KT 01/01 A3007 RMK A01 T00110011  RH  100%=      5-min Rain = 0
KDO1 161536Z 18001KT 01/01 A3007 RMK A01 T00110011  RH  100%=      5-min Rain = 0
KDO1 161537Z 18000KT 01/01 A3007 RMK A01 T00110011  RH  100%=      5-min Rain = 0
KDO1 161538Z 23000KT 01/01 A3007 RMK A01 T00110011  RH  100%=      5-min Rain = 0
KDO1 161539Z 24001KT 01/01 A3007 RMK A01 T00120012  RH  100%=      5-min Rain = 0
KDO1 161540Z 24001KT 01/01 A3007 RMK A01 T00120011  RH  100%=      5-min Rain = 0
KDO1 161541Z 26000KT 01/01 A3007 RMK A01 T00110011  RH  100%=      5-min Rain = 0
KDO1 161542Z 24000KT 01/01 A3007 RMK A01 T00120011  RH  100%=      5-min Rain = 0
KDO1 161543Z 20000KT 01/01 A3007 RMK A01 T00120012  RH  100%=      5-min Rain = 0
KDO1 161544Z 00000KT 01/01 A3007 RMK A01 T00140013  RH  100%=      5-min Rain = 0
KDO1 161545Z 00000KT 02/02 A3007 RMK A01 T00150015  RH  100%=      5-min Rain = 0
KDO1 161546Z 19000KT 02/02 A3007 RMK A01 T00150015  RH  100%=      5-min Rain = 0
KDO1 161547Z 00000KT 02/02 A3007 RMK A01 T00160016  RH  100%=      5-min Rain = 0
KDO1 161548Z 00000KT 02/02 A3007 RMK A01 T00160016  RH  100%=      5-min Rain = 0
KDO1 161549Z 00000KT 02/02 A3007 RMK A01 T00170016  RH  100%=      5-min Rain = 0
KDO1 161550Z 00000KT 02/02 A3007 RMK A01 T00180018  RH  100%=      5-min Rain = 0
KDO1 161551Z 00000KT 02/02 A3006 RMK A01 T00190019  RH  100%=      5-min Rain = 0
KDO1 161552Z 00000KT 02/02 A3006 RMK A01 T00200020  RH  100%=      5-min Rain = 0
KDO1 161553Z 00000KT 02/02 A3006 RMK A01 T00220022  RH  100%=      5-min Rain = 0
KDO1 161554Z 00000KT 02/02 A3006 RMK A01 T00240024  RH  100%=      5-min Rain = 0
KDO1 161555Z 00000KT 03/03 A3006 RMK A01 T00260026  RH  100%=      5-min Rain = 0
KDO1 161556Z 02000KT 03/03 A3006 RMK A01 T00260026  RH  100%=      5-min Rain = 0
KDO1 161557Z 00000KT 03/03 A3006 RMK A01 T00250025  RH  100%=      5-min Rain = 0
KDO1 161558Z 00000KT 03/03 A3006 RMK A01 T00260026  RH  100%=      5-min Rain = 0
KDO1 161559Z 00000KT 03/03 A3007 RMK A01 T00270027  RH  100%=      5-min Rain = 0
KDO1 161600Z 00000KT 03/03 A3007 RMK A01 T00270027  RH  100%=      5-min Rain = 0
KDO1 161601Z 15001KT 03/03 A3007 RMK A01 T00290029  RH  100%=      5-min Rain = 0
KDO1 161602Z 14000KT 03/03 A3007 RMK A01 T00320032  RH  100%=      5-min Rain = 0
KDO1 161603Z 00000KT 03/03 A3007 RMK A01 T00330033  RH  100%=      5-min Rain = 0
KDO1 161604Z 10000KT 04/04 A3007 RMK A01 T00350035  RH  100%=      5-min Rain = 0
KDO1 161605Z 12001KT 04/04 A3007 RMK A01 T00370037  RH  100%=      5-min Rain = 0
KDO1 161606Z 12001KT 04/04 A3007 RMK A01 T00360036  RH  100%=      5-min Rain = 0
KDO1 161607Z 16001KT 04/04 A3006 RMK A01 T00360036  RH  100%=      5-min Rain = 0
KDO1 161608Z 14002KT 04/04 A3006 RMK A01 T00370036  RH  100%=      5-min Rain = 0
KDO1 161609Z 12002KT 04/04 A3006 RMK A01 T00360036  RH  100%=      5-min Rain = 0
KDO1 161610Z 14002KT 04/04 A3006 RMK A01 T00360035  RH  100%=      5-min Rain = 0
KDO1 161611Z 13002KT 04/04 A3007 RMK A01 T00360036  RH  100%=      5-min Rain = 0
KDO1 161612Z 13003KT 04/04 A3007 RMK A01 T00350035  RH  100%=      5-min Rain = 0
KDO1 161613Z 13003KT 03/03 A3007 RMK A01 T00340034  RH  100%=      5-min Rain = 0
KDO1 161614Z 19003KT 04/04 A3007 RMK A01 T00360035  RH  100%=      5-min Rain = 0
KDO1 161615Z 17003KT 04/04 A3007 RMK A01 T00360036  RH  100%=      5-min Rain = 0
KDO1 161616Z 17003KT 04/04 A3007 RMK A01 T00370037  RH  100%=      5-min Rain = 0
KDO1 161617Z 16002KT 04/04 A3007 RMK A01 T00360036  RH  100%=      5-min Rain = 0
KDO1 161618Z 14001KT 04/04 A3007 RMK A01 T00350035  RH  100%=      5-min Rain = 0
KDO1 161619Z 15001KT 04/04 A3007 RMK A01 T00350035  RH  100%=      5-min Rain = 0
KDO1 161620Z 15002KT 04/04 A3007 RMK A01 T00370037  RH  100%=      5-min Rain = 0
KDO1 161621Z 17001KT 04/04 A3007 RMK A01 T00380038  RH  100%=      5-min Rain = 0
KDO1 161622Z 17000KT 04/04 A3007 RMK A01 T00380038  RH  100%=      5-min Rain = 0
KDO1 161623Z 17002KT 04/04 A3007 RMK A01 T00390038  RH  100%=      5-min Rain = 0
KDO1 161624Z 17003KT 04/04 A3007 RMK A01 T00390039  RH  100%=      5-min Rain = 0
KDO1 161625Z 17002KT 04/04 A3007 RMK A01 T00390039  RH  100%=      5-min Rain = 0
KDO1 161626Z 16001KT 04/04 A3007 RMK A01 T00380038  RH  100%=      5-min Rain = 0
KDO1 161627Z 16001KT 04/04 A3007 RMK A01 T00380038  RH  100%=      5-min Rain = 0
KDO1 161628Z 12001KT 04/04 A3007 RMK A01 T00380038  RH  100%=      5-min Rain = 0
KDO1 161629Z 00000KT 04/04 A3007 RMK A01 T00390039  RH  100%=      5-min Rain = 0
KDO1 161630Z 09000KT 04/04 A3007 RMK A01 T00410041  RH  100%=      5-min Rain = 0
KDO1 161631Z 08002KT 04/04 A3007 RMK A01 T00420042  RH  100%=      5-min Rain = 0
KDO1 161632Z 09002KT 04/04 A3007 RMK A01 T00420042  RH  100%=      5-min Rain = 0
KDO1 161633Z 08002KT 04/04 A3007 RMK A01 T00420042  RH  100%=      5-min Rain = 0
KDO1 161634Z 07002KT 04/04 A3007 RMK A01 T00420041  RH  100%=      5-min Rain = 0
KDO1 161635Z 06001KT 04/04 A3007 RMK A01 T00420041  RH  100%=      5-min Rain = 0
KDO1 161636Z 07001KT 04/04 A3007 RMK A01 T00410041  RH  100%=      5-min Rain = 0
KDO1 161637Z 15002KT 04/04 A3007 RMK A01 T00430043  RH  100%=      5-min Rain = 0
KDO1 161638Z 15002KT 05/05 A3007 RMK A01 T00450045  RH  100%=      5-min Rain = 0
KDO1 161639Z 14002KT 05/05 A3007 RMK A01 T00480048  RH  100%=      5-min Rain = 0
KDO1 161640Z 13002KT 05/05 A3007 RMK A01 T00480048  RH  100%=      5-min Rain = 0
KDO1 161641Z 13002KT 05/05 A3007 RMK A01 T00480048  RH  100%=      5-min Rain = 0
KDO1 161642Z 13002KT 05/05 A3007 RMK A01 T00480048  RH  100%=      5-min Rain = 0
KDO1 161643Z 12001KT 05/05 A3007 RMK A01 T00480048  RH  100%=      5-min Rain = 0
KDO1 161644Z 12003KT 05/05 A3007 RMK A01 T00490048  RH  100%=      5-min Rain = 0
KDO1 161645Z 14003KT 05/05 A3007 RMK A01 T00500049  RH  100%=      5-min Rain = 0
KDO1 161646Z 13002KT 05/05 A3007 RMK A01 T00500050  RH  100%=      5-min Rain = 0
KDO1 161647Z 16003KT 05/05 A3007 RMK A01 T00510051  RH  100%=      5-min Rain = 0
KDO1 161648Z 17002KT 05/05 A3007 RMK A01 T00510050  RH  099%=      5-min Rain = 0
KDO1 161649Z 16001KT 05/05 A3007 RMK A01 T00520050  RH  099%=      5-min Rain = 0
KDO1 161650Z 19001KT 05/05 A3007 RMK A01 T00520049  RH  098%=      5-min Rain = 0
KDO1 161651Z 19001KT 05/05 A3007 RMK A01 T00520050  RH  098%=      5-min Rain = 0
KDO1 161652Z 20001KT 05/05 A3007 RMK A01 T00530050  RH  098%=      5-min Rain = 0
KDO1 161653Z 22001KT 05/05 A3007 RMK A01 T00530050  RH  098%=      5-min Rain = 0
KDO1 161654Z 19002KT 06/05 A3007 RMK A01 T00550052  RH  098%=      5-min Rain = 0
KDO1 161655Z 20003KT 06/05 A3007 RMK A01 T00570052  RH  097%=      5-min Rain = 0
KDO1 161656Z 19002KT 06/05 A3007 RMK A01 T00570051  RH  096%=      5-min Rain = 0
KDO1 161657Z 18002KT 06/05 A3007 RMK A01 T00570051  RH  095%=      5-min Rain = 0
KDO1 161658Z 18002KT 06/05 A3007 RMK A01 T00580050  RH  095%=      5-min Rain = 0
KDO1 161659Z 16003KT 06/05 A3007 RMK A01 T00590050  RH  094%=      5-min Rain = 0
KDO1 161700Z 15002KT 06/05 A3007 RMK A01 T00600051  RH  094%=      5-min Rain = 0
KDO1 161701Z 15003KT 06/05 A3007 RMK A01 T00610052  RH  094%=      5-min Rain = 0
KDO1 161702Z 15003KT 06/05 A3007 RMK A01 T00620050  RH  092%=      5-min Rain = 0
KDO1 161703Z 14002KT 06/05 A3007 RMK A01 T00620050  RH  092%=      5-min Rain = 0
KDO1 161704Z 15003KT 06/05 A3007 RMK A01 T00630052  RH  092%=      5-min Rain = 0
KDO1 161705Z 15002KT 06/05 A3007 RMK A01 T00640050  RH  090%=      5-min Rain = 0
KDO1 161706Z 14002KT 06/05 A3007 RMK A01 T00640049  RH  090%=      5-min Rain = 0
KDO1 161707Z 15003KT 07/05 A3007 RMK A01 T00660051  RH  090%=      5-min Rain = 0
KDO1 161708Z 15003KT 07/05 A3007 RMK A01 T00680051  RH  089%=      5-min Rain = 0
KDO1 161709Z 15003KT 07/05 A3007 RMK A01 T00690049  RH  087%=      5-min Rain = 0
KDO1 161710Z 16003KT 07/05 A3007 RMK A01 T00690050  RH  088%=      5-min Rain = 0
KDO1 161711Z 15003KT 07/05 A3007 RMK A01 T00690050  RH  088%=      5-min Rain = 0
KDO1 161712Z 15004KT 07/05 A3007 RMK A01 T00690049  RH  087%=      5-min Rain = 0
KDO1 161713Z 16004KT 07/05 A3007 RMK A01 T00710050  RH  087%=      5-min Rain = 0
KDO1 161714Z 17004KT 07/05 A3007 RMK A01 T00720050  RH  086%=      5-min Rain = 0
KDO1 161715Z 16002KT 07/05 A3007 RMK A01 T00720048  RH  084%=      5-min Rain = 0
KDO1 161716Z 14003KT 07/05 A3007 RMK A01 T00730050  RH  085%=      5-min Rain = 0
KDO1 161717Z 16003KT 08/05 A3007 RMK A01 T00750050  RH  084%=      5-min Rain = 0
KDO1 161718Z 16002KT 08/05 A3007 RMK A01 T00760050  RH  084%=      5-min Rain = 0
KDO1 161719Z 16004KT 08/05 A3006 RMK A01 T00770051  RH  083%=      5-min Rain = 0
KDO1 161720Z 15005KT 08/05 A3006 RMK A01 T00780049  RH  082%=      5-min Rain = 0
KDO1 161721Z 16005KT 08/05 A3006 RMK A01 T00790050  RH  082%=      5-min Rain = 0
KDO1 161722Z 17004KT 08/05 A3006 RMK A01 T00810050  RH  081%=      5-min Rain = 0
KDO1 161723Z 16004KT 08/05 A3006 RMK A01 T00810051  RH  081%=      5-min Rain = 0
KDO1 161724Z 18004KT 08/05 A3006 RMK A01 T00840052  RH  080%=      5-min Rain = 0
KDO1 161725Z 18005KT 08/05 A3006 RMK A01 T00840050  RH  079%=      5-min Rain = 0
KDO1 161726Z 17004KT 08/05 A3006 RMK A01 T00830049  RH  079%=      5-min Rain = 0
KDO1 161727Z 15003KT 08/05 A3006 RMK A01 T00840051  RH  080%=      5-min Rain = 0
KDO1 161728Z 17004KT 09/05 A3006 RMK A01 T00850050  RH  079%=      5-min Rain = 0
KDO1 161729Z 17005KT 08/05 A3006 RMK A01 T00840048  RH  078%=      5-min Rain = 0
KDO1 161730Z 17004KT 08/05 A3006 RMK A01 T00830049  RH  079%=      5-min Rain = 0
KDO1 161731Z 17004KT 08/05 A3006 RMK A01 T00830049  RH  079%=      5-min Rain = 0
KDO1 161732Z 14003KT 08/05 A3006 RMK A01 T00840050  RH  079%=      5-min Rain = 0
KDO1 161733Z 16004KT 09/05 A3005 RMK A01 T00860051  RH  079%=      5-min Rain = 0
KDO1 161734Z 16003KT 09/05 A3005 RMK A01 T00860050  RH  078%=      5-min Rain = 0
KDO1 161735Z 17004KT 09/05 A3005 RMK A01 T00870052  RH  078%=      5-min Rain = 0
KDO1 161736Z 15004KT 09/05 A3005 RMK A01 T00880049  RH  077%=      5-min Rain = 0
KDO1 161737Z 16003KT 09/05 A3005 RMK A01 T00890049  RH  076%=      5-min Rain = 0
KDO1 161738Z 13003KT 09/05 A3005 RMK A01 T00890051  RH  077%=      5-min Rain = 0
KDO1 161739Z 16004KT 09/05 A3005 RMK A01 T00910052  RH  076%=      5-min Rain = 0
KDO1 161740Z 18003KT 09/05 A3005 RMK A01 T00930052  RH  076%=      5-min Rain = 0
KDO1 161741Z 16004KT 10/05 A3005 RMK A01 T00950054  RH  076%=      5-min Rain = 0
KDO1 161742Z 17005KT 10/05 A3005 RMK A01 T00960053  RH  074%=      5-min Rain = 0
KDO1 161743Z 17003KT 10/05 A3005 RMK A01 T00970053  RH  074%=      5-min Rain = 0
KDO1 161744Z 15003KT 10/05 A3004 RMK A01 T00980054  RH  074%=      5-min Rain = 0
KDO1 161745Z 17004KT 10/05 A3004 RMK A01 T00990054  RH  074%=      5-min Rain = 0
KDO1 161746Z 16004KT 10/05 A3004 RMK A01 T01000053  RH  073%=      5-min Rain = 0
KDO1 161747Z 18003KT 10/05 A3004 RMK A01 T01000053  RH  073%=      5-min Rain = 0
KDO1 161748Z 18003KT 10/05 A3004 RMK A01 T01000053  RH  072%=      5-min Rain = 0
KDO1 161749Z 17002KT 10/06 A3004 RMK A01 T01000055  RH  073%=      5-min Rain = 0
KDO1 161750Z 18005KT 10/05 A3004 RMK A01 T01020054  RH  073%=      5-min Rain = 0
KDO1 161751Z 16003KT 10/05 A3004 RMK A01 T01010052  RH  071%=      5-min Rain = 0
KDO1 161752Z 16004KT 10/05 A3004 RMK A01 T01010053  RH  072%=      5-min Rain = 0
KDO1 161753Z 17003KT 10/05 A3004 RMK A01 T01010053  RH  072%=      5-min Rain = 0
KDO1 161754Z 15003KT 10/06 A3004 RMK A01 T01020056  RH  073%=      5-min Rain = 0
KDO1 161755Z 13003KT 10/05 A3004 RMK A01 T01030053  RH  071%=      5-min Rain = 0
KDO1 161756Z 13003KT 10/05 A3004 RMK A01 T01030053  RH  071%=      5-min Rain = 0
KDO1 161757Z 15004KT 10/06 A3003 RMK A01 T01030055  RH  072%=      5-min Rain = 0
KDO1 161758Z 15005KT 10/05 A3003 RMK A01 T01030054  RH  071%=      5-min Rain = 0
KDO1 161759Z 13005KT 10/05 A3003 RMK A01 T01030054  RH  072%=      5-min Rain = 0
KDO1 161800Z 16005KT 10/06 A3003 RMK A01 T01040056  RH  072%=      5-min Rain = 0
KDO1 161801Z 17005KT 11/05 A3003 RMK A01 T01050054  RH  071%=      5-min Rain = 0
KDO1 161802Z 15006KT 11/06 A3003 RMK A01 T01050056  RH  072%=      5-min Rain = 0
KDO1 161803Z 16005KT 11/06 A3003 RMK A01 T01060056  RH  071%=      5-min Rain = 0
KDO1 161804Z 16004KT 11/06 A3003 RMK A01 T01070056  RH  071%=      5-min Rain = 0
KDO1 161805Z 18005KT 11/06 A3003 RMK A01 T01090060  RH  072%=      5-min Rain = 0
KDO1 161806Z 16004KT 11/06 A3003 RMK A01 T01120060  RH  070%=      5-min Rain = 0
KDO1 161807Z 13003KT 11/06 A3003 RMK A01 T01120058  RH  069%=      5-min Rain = 0
KDO1 161808Z 13004KT 11/06 A3003 RMK A01 T01120059  RH  070%=      5-min Rain = 0
KDO1 161809Z 13004KT 11/06 A3003 RMK A01 T01120060  RH  070%=      5-min Rain = 0
KDO1 161810Z 15005KT 11/06 A3002 RMK A01 T01130058  RH  069%=      5-min Rain = 0
KDO1 161811Z 15005KT 11/06 A3002 RMK A01 T01130057  RH  068%=      5-min Rain = 0
KDO1 161812Z 15005KT 11/06 A3002 RMK A01 T01120057  RH  069%=      5-min Rain = 0
KDO1 161813Z 14005KT 11/06 A3002 RMK A01 T01120057  RH  069%=      5-min Rain = 0
KDO1 161814Z 14005KT 11/06 A3002 RMK A01 T01130060  RH  070%=      5-min Rain = 0
KDO1 161815Z 13005KT 12/06 A3002 RMK A01 T01160061  RH  069%=      5-min Rain = 0
KDO1 161816Z 13006KT 12/06 A3002 RMK A01 T01190061  RH  068%=      5-min Rain = 0
KDO1 161817Z 12004KT 12/06 A3002 RMK A01 T01190059  RH  067%=      5-min Rain = 0
KDO1 161818Z 13005KT 12/06 A3002 RMK A01 T01200062  RH  068%=      5-min Rain = 0
KDO1 161819Z 13005KT 12/06 A3002 RMK A01 T01220062  RH  067%=      5-min Rain = 0
KDO1 161820Z 12006KT 12/06 A3001 RMK A01 T01230061  RH  066%=      5-min Rain = 0
KDO1 161821Z 13005KT 12/06 A3001 RMK A01 T01230059  RH  065%=      5-min Rain = 0
KDO1 161822Z 13004KT 12/06 A3001 RMK A01 T01220059  RH  065%=      5-min Rain = 0
KDO1 161823Z 12006KT 12/06 A3001 RMK A01 T01220060  RH  066%=      5-min Rain = 0
KDO1 161824Z 13006KT 12/06 A3001 RMK A01 T01240061  RH  065%=      5-min Rain = 0
KDO1 161825Z 12005KT 13/06 A3001 RMK A01 T01250060  RH  065%=      5-min Rain = 0
KDO1 161826Z 12006KT 13/06 A3001 RMK A01 T01250059  RH  064%=      5-min Rain = 0
KDO1 161827Z 13006KT 13/06 A3001 RMK A01 T01250060  RH  065%=      5-min Rain = 0
KDO1 161828Z 12005KT 13/06 A3001 RMK A01 T01260061  RH  065%=      5-min Rain = 0
KDO1 161829Z 13006KT 13/06 A30 RMK A01 T01270062  RH  065%=      5-min Rain = 0
KDO1 161830Z 13006KT 13/06 A30 RMK A01 T01290063  RH  064%=      5-min Rain = 0
KDO1 161831Z 12006KT 13/06 A30 RMK A01 T01310063  RH  063%=      5-min Rain = 0
KDO1 161832Z 14006KT 13/06 A30 RMK A01 T01320063  RH  063%=      5-min Rain = 0
KDO1 161833Z 14006KT 13/06 A30 RMK A01 T01340063  RH  062%=      5-min Rain = 0
KDO1 161834Z 13007KT 14/06 A30 RMK A01 T01360064  RH  062%=      5-min Rain = 0
KDO1 161835Z 13005KT 14/06 A30 RMK A01 T01370063  RH  061%=      5-min Rain = 0
KDO1 161836Z 14005KT 14/07 A30 RMK A01 T01400065  RH  061%=      5-min Rain = 0
KDO1 161837Z 13007KT 14/06 A30 RMK A01 T01410064  RH  060%=      5-min Rain = 0
KDO1 161838Z 13005KT 14/06 A2999 RMK A01 T01420063  RH  059%=      5-min Rain = 0
KDO1 161839Z 14004KT 14/07 A2999 RMK A01 T01430066  RH  060%=      5-min Rain = 0
KDO1 161840Z 13004KT 15/07 A2999 RMK A01 T01450066  RH  059%=      5-min Rain = 0
KDO1 161841Z 13007KT 15/07 A2999 RMK A01 T01480067  RH  059%=      5-min Rain = 0
KDO1 161842Z 13006KT 15/07 A2999 RMK A01 T01490066  RH  057%=      5-min Rain = 0
KDO1 161843Z 13006KT 15/07 A2999 RMK A01 T01480066  RH  058%=      5-min Rain = 0
KDO1 161844Z 12005KT 15/07 A2999 RMK A01 T01490068  RH  058%=      5-min Rain = 0
KDO1 161845Z 12005KT 15/07 A2998 RMK A01 T01510069  RH  058%=      5-min Rain = 0
KDO1 161846Z 13006KT 15/07 A2998 RMK A01 T01520067  RH  057%=      5-min Rain = 0
KDO1 161847Z 13005KT 15/07 A2998 RMK A01 T01520066  RH  057%=      5-min Rain = 0
KDO1 161848Z 14006KT 15/07 A2998 RMK A01 T01520067  RH  057%=      5-min Rain = 0
KDO1 161849Z 13006KT 15/07 A2998 RMK A01 T01530066  RH  056%=      5-min Rain = 0
KDO1 161850Z 13007KT 16/07 A2998 RMK A01 T01550066  RH  055%=      5-min Rain = 0
KDO1 161851Z 13006KT 16/07 A2997 RMK A01 T01570066  RH  055%=      5-min Rain = 0
KDO1 161852Z 13006KT 16/07 A2997 RMK A01 T01600069  RH  054%=      5-min Rain = 0
KDO1 161853Z 13007KT 16/07 A2997 RMK A01 T01640068  RH  053%=      5-min Rain = 0
KDO1 161854Z 15006KT 17/07 A2997 RMK A01 T01660067  RH  052%=      5-min Rain = 0
KDO1 161855Z 14006KT 17/07 A2997 RMK A01 T01690069  RH  052%=      5-min Rain = 0
KDO1 161856Z 14007KT 17/07 A2997 RMK A01 T01720067  RH  050%=      5-min Rain = 0
KDO1 161857Z 15007KT 17/07 A2997 RMK A01 T01730067  RH  049%=      5-min Rain = 0
KDO1 161858Z 16006KT 18/07 A2997 RMK A01 T01750067  RH  049%=      5-min Rain = 0
KDO1 161859Z 15006KT 18/07 A2997 RMK A01 T01770067  RH  048%=      5-min Rain = 0
KDO1 161900Z 17006KT 18/07 A2997 RMK A01 T01790067  RH  048%=      5-min Rain = 0
KDO1 161901Z 17006KT 18/06 A2997 RMK A01 T01810064  RH  046%=      5-min Rain = 0
KDO1 161902Z 18005KT 18/07 A2996 RMK A01 T01830065  RH  046%=      5-min Rain = 0
KDO1 161903Z 17006KT 19/06 A2996 RMK A01 T01870060  RH  044%=      5-min Rain = 0
KDO1 161904Z 17013G18KT 19/06 A2996 RMK A01 T01890056  RH  042%=      5-min Rain = 0
KDO1 161905Z 19011G18KT 19/05 A2996 RMK A01 T01930051  RH  039%=      5-min Rain = 0
KDO1 161906Z 17010G19KT 20/06 A2996 RMK A01 T01960057  RH  040%=      5-min Rain = 0
KDO1 161907Z 22013KT 20/06 A2996 RMK A01 T01990057  RH  039%=      5-min Rain = 0
KDO1 161908Z 23014KT 20/05 A2996 RMK A01 T02020052  RH  037%=      5-min Rain = 0
KDO1 161909Z 24017G24KT 21/05 A2995 RMK A01 T02070047  RH  035%=      5-min Rain = 0
KDO1 161910Z 25018KT 21/04 A2995 RMK A01 T02110044  RH  033%=      5-min Rain = 0
KDO1 161911Z 24017KT 21/04 A2995 RMK A01 T02120043  RH  033%=      5-min Rain = 0
KDO1 161912Z 24018KT 21/04 A2995 RMK A01 T02130043  RH  033%=      5-min Rain = 0
KDO1 161913Z 25017G22KT 21/04 A2995 RMK A01 T02140041  RH  032%=      5-min Rain = 0
KDO1 161914Z 25016KT 22/04 A2995 RMK A01 T02150040  RH  032%=      5-min Rain = 0
KDO1 161915Z 24016KT 22/04 A2995 RMK A01 T02150039  RH  031%=      5-min Rain = 0
KDO1 161916Z 23017KT 22/04 A2995 RMK A01 T02150040  RH  032%=      5-min Rain = 0
KDO1 161917Z 23017KT 22/04 A2995 RMK A01 T02160039  RH  031%=      5-min Rain = 0
KDO1 161918Z 23015KT 22/04 A2994 RMK A01 T02160038  RH  031%=      5-min Rain = 0
KDO1 161919Z 23015G20KT 22/04 A2994 RMK A01 T02160040  RH  032%=      5-min Rain = 0
KDO1 161920Z 24014KT 22/04 A2994 RMK A01 T02170038  RH  031%=      5-min Rain = 0
KDO1 161921Z 24017KT 22/04 A2994 RMK A01 T02170040  RH  031%=      5-min Rain = 0
KDO1 161922Z 23021KT 22/04 A2994 RMK A01 T02180040  RH  031%=      5-min Rain = 0
KDO1 161923Z 22021KT 22/04 A2994 RMK A01 T02180037  RH  031%=      5-min Rain = 0
KDO1 161924Z 23018KT 22/04 A2994 RMK A01 T02170038  RH  031%=      5-min Rain = 0
KDO1 161925Z 24020KT 22/04 A2994 RMK A01 T02170037  RH  031%=      5-min Rain = 0
KDO1 161926Z 24016G21KT 22/04 A2994 RMK A01 T02180038  RH  031%=      5-min Rain = 0
KDO1 161927Z 23015KT 22/04 A2994 RMK A01 T02190040  RH  031%=      5-min Rain = 0
KDO1 161928Z 25015G21KT 22/04 A2993 RMK A01 T02200039  RH  031%=      5-min Rain = 0
KDO1 161929Z 23022KT 22/04 A2993 RMK A01 T02220038  RH  030%=      5-min Rain = 0
KDO1 161930Z 25022G27KT 22/04 A2993 RMK A01 T02210036  RH  030%=      5-min Rain = 0
KDO1 161931Z 25021KT 22/03 A2993 RMK A01 T02200034  RH  030%=      5-min Rain = 0
KDO1 161932Z 26018KT 22/03 A2993 RMK A01 T02180034  RH  030%=      5-min Rain = 0
KDO1 161933Z 26014G19KT 22/04 A2993 RMK A01 T02170035  RH  030%=      5-min Rain = 0
KDO1 161934Z 24014G19KT 22/04 A2993 RMK A01 T02180037  RH  030%=      5-min Rain = 0
KDO1 161935Z 24021KT 22/04 A2993 RMK A01 T02210038  RH  030%=      5-min Rain = 0
KDO1 161936Z 25020G27KT 22/04 A2993 RMK A01 T02210036  RH  030%=      5-min Rain = 0
KDO1 161937Z 24021KT 22/04 A2993 RMK A01 T02220037  RH  030%=      5-min Rain = 0
KDO1 161938Z 25019G25KT 22/03 A2993 RMK A01 T02220034  RH  029%=      5-min Rain = 0
KDO1 161939Z 24022G27KT 22/03 A2993 RMK A01 T02230031  RH  028%=      5-min Rain = 0
KDO1 161940Z 24021G26KT 22/03 A2993 RMK A01 T02240030  RH  028%=      5-min Rain = 0
KDO1 161941Z 26014G20KT 22/03 A2992 RMK A01 T02240031  RH  028%=      5-min Rain = 0
KDO1 161942Z 26023G29KT 23/03 A2992 RMK A01 T02260030  RH  028%=      5-min Rain = 0
KDO1 161943Z 26021G27KT 23/03 A2992 RMK A01 T02250028  RH  027%=      5-min Rain = 0
KDO1 161944Z 25019G25KT 22/03 A2992 RMK A01 T02230029  RH  028%=      5-min Rain = 0
KDO1 161945Z 24014G20KT 22/03 A2993 RMK A01 T02240034  RH  029%=      5-min Rain = 0
KDO1 161946Z 24018KT 23/04 A2992 RMK A01 T02260036  RH  029%=      5-min Rain = 0
KDO1 161947Z 23019KT 22/04 A2992 RMK A01 T02240040  RH  030%=      5-min Rain = 0
KDO1 161948Z 24016KT 22/04 A2992 RMK A01 T02230042  RH  031%=      5-min Rain = 0
KDO1 161949Z 22014KT 22/04 A2992 RMK A01 T02230041  RH  030%=      5-min Rain = 0
KDO1 161950Z 22017KT 22/04 A2992 RMK A01 T02240042  RH  031%=      5-min Rain = 0
KDO1 161951Z 21019KT 22/04 A2992 RMK A01 T02240040  RH  030%=      5-min Rain = 0
KDO1 161952Z 22017KT 22/04 A2992 RMK A01 T02240039  RH  030%=      5-min Rain = 0
KDO1 161953Z 23016KT 22/04 A2992 RMK A01 T02230039  RH  030%=      5-min Rain = 0
KDO1 161954Z 23016G23KT 22/04 A2992 RMK A01 T02230037  RH  030%=      5-min Rain = 0
KDO1 161955Z 23019KT 22/04 A2992 RMK A01 T02230035  RH  029%=      5-min Rain = 0
KDO1 161956Z 23020KT 22/03 A2992 RMK A01 T02230033  RH  029%=      5-min Rain = 0
KDO1 161957Z 22016KT 22/03 A2992 RMK A01 T02230032  RH  029%=      5-min Rain = 0
KDO1 161958Z 23018KT 22/03 A2992 RMK A01 T02220033  RH  029%=      5-min Rain = 0
KDO1 161959Z 23018G23KT 22/03 A2992 RMK A01 T02230034  RH  029%=      5-min Rain = 0
KDO1 162000Z 22014G20KT 22/04 A2992 RMK A01 T02230035  RH  029%=      5-min Rain = 0
KDO1 162001Z 21016G21KT 22/04 A2992 RMK A01 T02240039  RH  030%=      5-min Rain = 0
KDO1 162002Z 21016KT 23/04 A2991 RMK A01 T02250037  RH  029%=      5-min Rain = 0
KDO1 162003Z 22017KT 22/04 A2991 RMK A01 T02240035  RH  029%=      5-min Rain = 0
KDO1 162004Z 21019G24KT 22/03 A2991 RMK A01 T02240032  RH  028%=      5-min Rain = 0
KDO1 162005Z 22018KT 22/03 A2991 RMK A01 T02240031  RH  028%=      5-min Rain = 0
KDO1 162006Z 22020KT 22/03 A2991 RMK A01 T02240030  RH  028%=      5-min Rain = 0
KDO1 162007Z 22017KT 23/03 A2991 RMK A01 T02250029  RH  028%=      5-min Rain = 0
KDO1 162008Z 24017KT 23/03 A2991 RMK A01 T02270031  RH  028%=      5-min Rain = 0
KDO1 162009Z 24012KT 23/03 A2991 RMK A01 T02290029  RH  027%=      5-min Rain = 0
KDO1 162010Z 25015KT 23/03 A2991 RMK A01 T02300029  RH  027%=      5-min Rain = 0
KDO1 162011Z 24020G26KT 23/03 A2991 RMK A01 T02310026  RH  026%=      5-min Rain = 0
KDO1 162012Z 23018G24KT 23/03 A2991 RMK A01 T02300025  RH  026%=      5-min Rain = 0
KDO1 162013Z 23017G22KT 23/03 A2991 RMK A01 T02300026  RH  026%=      5-min Rain = 0
KDO1 162014Z 23018KT 23/02 A2991 RMK A01 T02310024  RH  026%=      5-min Rain = 0
KDO1 162015Z 25017G23KT 23/03 A299 RMK A01 T02300026  RH  026%=      5-min Rain = 0
KDO1 162016Z 25017G22KT 23/03 A299 RMK A01 T02300026  RH  026%=      5-min Rain = 0
KDO1 162017Z 24017KT 23/03 A299 RMK A01 T02300027  RH  026%=      5-min Rain = 0
KDO1 162018Z 24018KT 23/03 A299 RMK A01 T02310025  RH  026%=      5-min Rain = 0
KDO1 162019Z 24018G23KT 23/03 A299 RMK A01 T02300025  RH  026%=      5-min Rain = 0
KDO1 162020Z 24019KT 23/03 A299 RMK A01 T02300028  RH  027%=      5-min Rain = 0
KDO1 162021Z 24016G21KT 23/03 A299 RMK A01 T02310030  RH  027%=      5-min Rain = 0
KDO1 162022Z 23018KT 23/03 A299 RMK A01 T02330033  RH  027%=      5-min Rain = 0
KDO1 162023Z 22015KT 23/03 A299 RMK A01 T02300033  RH  028%=      5-min Rain = 0
KDO1 162024Z 22017G23KT 23/03 A299 RMK A01 T02290034  RH  028%=      5-min Rain = 0
KDO1 162025Z 22021KT 23/03 A299 RMK A01 T02280034  RH  028%=      5-min Rain = 0
KDO1 162026Z 22019KT 23/04 A299 RMK A01 T02280035  RH  028%=      5-min Rain = 0
KDO1 162027Z 21018KT 23/04 A299 RMK A01 T02280035  RH  028%=      5-min Rain = 0
KDO1 162028Z 21018KT 23/03 A299 RMK A01 T02280034  RH  028%=      5-min Rain = 0
KDO1 162029Z 21013G18KT 23/04 A299 RMK A01 T02280035  RH  028%=      5-min Rain = 0
KDO1 162030Z 21019G25KT 23/03 A299 RMK A01 T02290033  RH  028%=      5-min Rain = 0
KDO1 162031Z 23021G26KT 23/03 A299 RMK A01 T02300027  RH  026%=      5-min Rain = 0
KDO1 162032Z 23014KT 23/03 A299 RMK A01 T02300025  RH  026%=      5-min Rain = 0
KDO1 162033Z 23013KT 23/03 A299 RMK A01 T02300027  RH  026%=      5-min Rain = 0
KDO1 162034Z 21016KT 23/03 A299 RMK A01 T02320030  RH  027%=      5-min Rain = 0
KDO1 162035Z 21016KT 23/03 A2989 RMK A01 T02330029  RH  026%=      5-min Rain = 0
KDO1 162036Z 22019KT 23/03 A299 RMK A01 T02330027  RH  026%=      5-min Rain = 0
KDO1 162037Z 23018G23KT 23/02 A2989 RMK A01 T02330023  RH  025%=      5-min Rain = 0
KDO1 162038Z 23018KT 23/02 A299 RMK A01 T02320020  RH  025%=      5-min Rain = 0
KDO1 162039Z 23019G24KT 23/02 A2989 RMK A01 T02310019  RH  025%=      5-min Rain = 0
KDO1 162040Z 23019KT 23/02 A2989 RMK A01 T02310021  RH  025%=      5-min Rain = 0
KDO1 162041Z 23017G22KT 23/02 A2989 RMK A01 T02310022  RH  025%=      5-min Rain = 0
KDO1 162042Z 23019KT 23/02 A299 RMK A01 T02330021  RH  025%=      5-min Rain = 0
KDO1 162043Z 23015KT 23/02 A299 RMK A01 T02330018  RH  024%=      5-min Rain = 0
KDO1 162044Z 23013G22KT 23/02 A299 RMK A01 T02330021  RH  025%=      5-min Rain = 0
KDO1 162045Z 24018G24KT 23/02 A2989 RMK A01 T02340024  RH  025%=      5-min Rain = 0
KDO1 162046Z 22014G19KT 24/03 A299 RMK A01 T02360027  RH  026%=      5-min Rain = 0
KDO1 162047Z 23018KT 24/02 A299 RMK A01 T02370023  RH  025%=      5-min Rain = 0
KDO1 162048Z 22019KT 24/02 A2989 RMK A01 T02350020  RH  024%=      5-min Rain = 0
KDO1 162049Z 23017KT 23/02 A299 RMK A01 T02340022  RH  025%=      5-min Rain = 0
KDO1 162050Z 22023KT 23/02 A2989 RMK A01 T02330020  RH  025%=      5-min Rain = 0
KDO1 162051Z 22016G22KT 23/02 A2989 RMK A01 T02320018  RH  025%=      5-min Rain = 0
KDO1 162052Z 22019G24KT 23/02 A299 RMK A01 T02330022  RH  025%=      5-min Rain = 0
KDO1 162053Z 21019KT 23/03 A2989 RMK A01 T02330025  RH  025%=      5-min Rain = 0
KDO1 162054Z 21019KT 23/03 A2989 RMK A01 T02320027  RH  026%=      5-min Rain = 0
KDO1 162055Z 22016KT 23/03 A2989 RMK A01 T02310026  RH  026%=      5-min Rain = 0
KDO1 162056Z 24016G21KT 23/03 A2989 RMK A01 T02320027  RH  026%=      5-min Rain = 0
KDO1 162057Z 24018KT 23/02 A2989 RMK A01 T02340019  RH  024%=      5-min Rain = 0
KDO1 162058Z 22018KT 23/02 A2989 RMK A01 T02340017  RH  024%=      5-min Rain = 0
KDO1 162059Z 23020KT 23/02 A2989 RMK A01 T02340015  RH  024%=      5-min Rain = 0
KDO1 162100Z 23018KT 23/02 A2989 RMK A01 T02330015  RH  024%=      5-min Rain = 0
KDO1 162101Z 22017KT 23/02 A2989 RMK A01 T02330016  RH  024%=      5-min Rain = 0
KDO1 162102Z 23014KT 23/02 A2989 RMK A01 T02340016  RH  024%=      5-min Rain = 0
KDO1 162103Z 23017G27KT 24/02 A2989 RMK A01 T02360020  RH  024%=      5-min Rain = 0
KDO1 162104Z 23023KT 24/02 A2989 RMK A01 T02360017  RH  024%=      5-min Rain = 0
KDO1 162105Z 23019KT 23/02 A2989 RMK A01 T02340018  RH  024%=      5-min Rain = 0
KDO1 162106Z 23019G27KT 23/02 A299 RMK A01 T02330018  RH  024%=      5-min Rain = 0
KDO1 162107Z 23018G24KT 23/02 A2989 RMK A01 T02330016  RH  024%=      5-min Rain = 0
KDO1 162108Z 23016G21KT 23/02 A2989 RMK A01 T02330015  RH  024%=      5-min Rain = 0
KDO1 162109Z 23021KT 23/02 A2989 RMK A01 T02330015  RH  024%=      5-min Rain = 0
KDO1 162110Z 23020G25KT 23/01 A2989 RMK A01 T02320014  RH  024%=      5-min Rain = 0
KDO1 162111Z 23021KT 23/02 A2989 RMK A01 T02310015  RH  024%=      5-min Rain = 0
KDO1 162112Z 23020G25KT 23/01 A2989 RMK A01 T02290014  RH  024%=      5-min Rain = 0
KDO1 162113Z 24021KT 23/02 A299 RMK A01 T02280015  RH  024%=      5-min Rain = 0
KDO1 162114Z 23020KT 23/01 A2989 RMK A01 T02290014  RH  024%=      5-min Rain = 0
KDO1 162115Z 23016KT 23/01 A2989 RMK A01 T02280014  RH  024%=      5-min Rain = 0
KDO1 162116Z 24021G27KT 23/02 A2989 RMK A01 T02270016  RH  025%=      5-min Rain = 0
KDO1 162117Z 24024KT 23/02 A2989 RMK A01 T02260015  RH  025%=      5-min Rain = 0
KDO1 162118Z 24019G25KT 23/02 A2989 RMK A01 T02260015  RH  025%=      5-min Rain = 0
KDO1 162119Z 24022KT 23/02 A2989 RMK A01 T02280016  RH  025%=      5-min Rain = 0
KDO1 162120Z 24018KT 23/02 A2989 RMK A01 T02270016  RH  025%=      5-min Rain = 0
KDO1 162121Z 24016KT 23/02 A2989 RMK A01 T02260016  RH  025%=      5-min Rain = 0
KDO1 162122Z 24019G24KT 23/02 A2989 RMK A01 T02250015  RH  025%=      5-min Rain = 0
KDO1 162123Z 23019KT 23/01 A2989 RMK A01 T02250014  RH  025%=      5-min Rain = 0
KDO1 162124Z 24019KT 23/01 A2989 RMK A01 T02270014  RH  025%=      5-min Rain = 0
KDO1 162125Z 24020KT 23/01 A2989 RMK A01 T02290014  RH  024%=      5-min Rain = 0
KDO1 162126Z 23017KT 23/02 A2989 RMK A01 T02300016  RH  024%=      5-min Rain = 0
KDO1 162127Z 22020KT 23/02 A2989 RMK A01 T02320016  RH  024%=      5-min Rain = 0
KDO1 162128Z 22019KT 23/02 A2989 RMK A01 T02330017  RH  024%=      5-min Rain = 0
KDO1 162129Z 21018KT 23/02 A2989 RMK A01 T02340018  RH  024%=      5-min Rain = 0
KDO1 162130Z 22016KT 23/02 A2989 RMK A01 T02330018  RH  024%=      5-min Rain = 0
KDO1 162131Z 22019G24KT 23/02 A2989 RMK A01 T02330018  RH  024%=      5-min Rain = 0
KDO1 162132Z 23020KT 23/02 A2989 RMK A01 T02330018  RH  024%=      5-min Rain = 0
KDO1 162133Z 22020KT 23/02 A2989 RMK A01 T02340017  RH  024%=      5-min Rain = 0
KDO1 162134Z 22017KT 23/02 A2989 RMK A01 T02340018  RH  024%=      5-min Rain = 0
KDO1 162135Z 23017KT 23/02 A2989 RMK A01 T02340016  RH  024%=      5-min Rain = 0
KDO1 162136Z 23019KT 23/02 A2989 RMK A01 T02340016  RH  024%=      5-min Rain = 0
KDO1 162137Z 23016G21KT 23/02 A2989 RMK A01 T02340016  RH  024%=      5-min Rain = 0
KDO1 162138Z 22017KT 23/02 A2989 RMK A01 T02340015  RH  024%=      5-min Rain = 0
KDO1 162139Z 22017KT 24/02 A2989 RMK A01 T02350016  RH  024%=      5-min Rain = 0
KDO1 162140Z 23018KT 24/01 A2989 RMK A01 T02360013  RH  023%=      5-min Rain = 0
KDO1 162141Z 22019KT 24/01 A2989 RMK A01 T02360011  RH  023%=      5-min Rain = 0
KDO1 162142Z 22019KT 24/01 A2989 RMK A01 T02360009  RH  022%=      5-min Rain = 0
KDO1 162143Z 23020G25KT 24/00 A2989 RMK A01 T02360004  RH  022%=      5-min Rain = 0
KDO1 162144Z 23019KT 24/00 A2989 RMK A01 T02360004  RH  022%=      5-min Rain = 0
KDO1 162145Z 24020KT 24/00 A2989 RMK A01 T02360003  RH  021%=      5-min Rain = 0
KDO1 162146Z 23021KT 24/00 A2989 RMK A01 T02360001  RH  021%=      5-min Rain = 0
KDO1 162147Z 23024G29KT 24/M00 A2989 RMK A01 T02361004  RH  020%=      5-min Rain = 0
KDO1 162148Z 25020G25KT 24/M00 A2989 RMK A01 T02361004  RH  020%=      5-min Rain = 0
KDO1 162149Z 25021KT 24/M01 A2989 RMK A01 T02351006  RH  020%=      5-min Rain = 0
KDO1 162150Z 25019G24KT 23/M01 A2989 RMK A01 T02331007  RH  020%=      5-min Rain = 0
KDO1 162151Z 25019KT 23/M01 A2989 RMK A01 T02321008  RH  020%=      5-min Rain = 0
KDO1 162152Z 24019KT 23/M01 A2989 RMK A01 T02321009  RH  020%=      5-min Rain = 0
KDO1 162153Z 25017KT 23/M01 A2989 RMK A01 T02321008  RH  020%=      5-min Rain = 0
KDO1 162154Z 24020KT 23/M01 A2989 RMK A01 T02321007  RH  020%=      5-min Rain = 0
KDO1 162155Z 25018G23KT 23/M01 A2989 RMK A01 T02331007  RH  020%=      5-min Rain = 0
KDO1 162156Z 25019KT 23/M01 A2989 RMK A01 T02341007  RH  020%=      5-min Rain = 0
KDO1 162157Z 25022G27KT 23/M01 A2989 RMK A01 T02341008  RH  020%=      5-min Rain = 0
KDO1 162158Z 26022G27KT 23/M01 A2989 RMK A01 T02331009  RH  020%=      5-min Rain = 0
KDO1 162159Z 26020KT 23/M01 A2989 RMK A01 T02321007  RH  020%=      5-min Rain = 0
KDO1 162200Z 26018KT 23/M00 A2989 RMK A01 T02321004  RH  021%=      5-min Rain = 0
KDO1 162201Z 25020KT 23/M00 A2989 RMK A01 T02321004  RH  021%=      5-min Rain = 0
KDO1 162202Z 25019KT 23/M01 A2989 RMK A01 T02311006  RH  021%=      5-min Rain = 0
KDO1 162203Z 25021G26KT 23/M01 A2989 RMK A01 T02321005  RH  021%=      5-min Rain = 0
KDO1 162204Z 26017G23KT 23/M01 A2989 RMK A01 T02311007  RH  020%=      5-min Rain = 0
KDO1 162205Z 26019KT 23/M01 A2989 RMK A01 T02311005  RH  021%=      5-min Rain = 0
KDO1 162206Z 26019G24KT 23/M01 A2989 RMK A01 T02311006  RH  021%=      5-min Rain = 0
KDO1 162207Z 26020G26KT 23/M01 A2989 RMK A01 T02311005  RH  021%=      5-min Rain = 0
KDO1 162208Z 25019KT 23/M00 A2989 RMK A01 T02311004  RH  021%=      5-min Rain = 0
KDO1 162209Z 25020KT 23/M00 A2989 RMK A01 T02311002  RH  021%=      5-min Rain = 0
KDO1 162210Z 25017G22KT 23/M00 A2989 RMK A01 T02311002  RH  021%=      5-min Rain = 0
KDO1 162211Z 24020KT 23/M00 A2989 RMK A01 T02301002  RH  021%=      5-min Rain = 0
KDO1 162212Z 25016KT 23/M00 A2989 RMK A01 T02301001  RH  022%=      5-min Rain = 0
KDO1 162213Z 25016KT 23/M00 A2989 RMK A01 T02301002  RH  021%=      5-min Rain = 0
KDO1 162214Z 26013KT 23/M00 A2989 RMK A01 T02301001  RH  022%=      5-min Rain = 0
KDO1 162215Z 25014G19KT 23/M00 A2989 RMK A01 T02311001  RH  022%=      5-min Rain = 0
KDO1 162216Z 26018KT 23/M00 A2989 RMK A01 T02311001  RH  021%=      5-min Rain = 0
KDO1 162217Z 25020KT 23/M00 A2989 RMK A01 T02311002  RH  021%=      5-min Rain = 0
KDO1 162218Z 26019KT 23/M00 A2989 RMK A01 T02301003  RH  021%=      5-min Rain = 0
KDO1 162219Z 26018G23KT 23/M00 A2989 RMK A01 T02301004  RH  021%=      5-min Rain = 0
KDO1 162220Z 26019KT 23/M01 A2989 RMK A01 T02291005  RH  021%=      5-min Rain = 0
KDO1 162221Z 26019G25KT 23/M00 A2989 RMK A01 T02291004  RH  021%=      5-min Rain = 0
KDO1 162222Z 25019KT 23/M00 A2989 RMK A01 T02291002  RH  022%=      5-min Rain = 0
KDO1 162223Z 25020KT 23/M00 A2989 RMK A01 T02291002  RH  022%=      5-min Rain = 0
KDO1 162224Z 25020G25KT 23/M00 A2989 RMK A01 T02291001  RH  022%=      5-min Rain = 0
KDO1 162225Z 24022KT 23/M00 A2989 RMK A01 T02291001  RH  022%=      5-min Rain = 0
KDO1 162226Z 24020KT 23/M00 A2989 RMK A01 T02281001  RH  022%=      5-min Rain = 0
KDO1 162227Z 25019KT 23/M00 A2989 RMK A01 T02281001  RH  022%=      5-min Rain = 0
KDO1 162228Z 25019G24KT 23/M00 A2989 RMK A01 T02271001  RH  022%=      5-min Rain = 0
KDO1 162229Z 25021KT 23/M00 A2989 RMK A01 T02271001  RH  022%=      5-min Rain = 0
KDO1 162230Z 26015KT 23/M00 A2989 RMK A01 T02271002  RH  022%=      5-min Rain = 0
KDO1 162231Z 25017G22KT 23/00 A2989 RMK A01 T02270000  RH  022%=      5-min Rain = 0
KDO1 162232Z 25021KT 23/M00 A2989 RMK A01 T02271001  RH  022%=      5-min Rain = 0
KDO1 162233Z 26018G23KT 23/M00 A2989 RMK A01 T02261001  RH  022%=      5-min Rain = 0
KDO1 162234Z 25018KT 23/00 A2989 RMK A01 T02260000  RH  022%=      5-min Rain = 0
KDO1 162235Z 26018G23KT 23/00 A2989 RMK A01 T02260001  RH  022%=      5-min Rain = 0
KDO1 162236Z 25019KT 23/00 A2989 RMK A01 T02260000  RH  022%=      5-min Rain = 0
KDO1 162237Z 25018KT 23/00 A2989 RMK A01 T02250000  RH  022%=      5-min Rain = 0
KDO1 162238Z 24018KT 23/00 A2989 RMK A01 T02260002  RH  023%=      5-min Rain = 0
KDO1 162239Z 24019KT 23/00 A2989 RMK A01 T02250003  RH  023%=      5-min Rain = 0
KDO1 162240Z 25019KT 22/00 A2989 RMK A01 T02240002  RH  023%=      5-min Rain = 0
KDO1 162241Z 25021KT 22/00 A2989 RMK A01 T02240002  RH  023%=      5-min Rain = 0
KDO1 162242Z 25019KT 22/00 A2989 RMK A01 T02240002  RH  023%=      5-min Rain = 0
KDO1 162243Z 25017G22KT 22/00 A2989 RMK A01 T02240003  RH  023%=      5-min Rain = 0
KDO1 162244Z 25017KT 22/00 A2989 RMK A01 T02230003  RH  023%=      5-min Rain = 0
KDO1 162245Z 25017KT 22/00 A2989 RMK A01 T02230004  RH  023%=      5-min Rain = 0
KDO1 162246Z 26016G21KT 22/00 A2989 RMK A01 T02230004  RH  023%=      5-min Rain = 0
KDO1 162247Z 25016KT 22/00 A2989 RMK A01 T02230004  RH  023%=      5-min Rain = 0
KDO1 162248Z 25016KT 22/01 A2989 RMK A01 T02230005  RH  024%=      5-min Rain = 0
KDO1 162249Z 25015KT 22/01 A2989 RMK A01 T02230006  RH  024%=      5-min Rain = 0
KDO1 162250Z 24017G24KT 22/01 A2989 RMK A01 T02220007  RH  024%=      5-min Rain = 0
KDO1 162251Z 24016KT 22/01 A2989 RMK A01 T02220007  RH  024%=      5-min Rain = 0
KDO1 162252Z 24022G27KT 22/01 A2988 RMK A01 T02210007  RH  024%=      5-min Rain = 0
KDO1 162253Z 24022KT 22/00 A2988 RMK A01 T02210004  RH  024%=      5-min Rain = 0
KDO1 162254Z 24021KT 22/00 A2988 RMK A01 T02200003  RH  023%=      5-min Rain = 0
KDO1 162255Z 24019KT 22/00 A2988 RMK A01 T02200003  RH  024%=      5-min Rain = 0
KDO1 162256Z 24019KT 22/00 A2988 RMK A01 T02200003  RH  024%=      5-min Rain = 0
KDO1 162257Z 24020KT 22/00 A2988 RMK A01 T02200002  RH  023%=      5-min Rain = 0
KDO1 162258Z 24017KT 22/00 A2988 RMK A01 T02200002  RH  023%=      5-min Rain = 0
KDO1 162259Z 24014KT 22/00 A2988 RMK A01 T02190003  RH  024%=      5-min Rain = 0
KDO1 162300Z 23015KT 22/00 A2988 RMK A01 T02180003  RH  024%=      5-min Rain = 0
KDO1 162301Z 24016G22KT 22/00 A2988 RMK A01 T02180002  RH  024%=      5-min Rain = 0
KDO1 162302Z 24019KT 22/00 A2988 RMK A01 T02180001  RH  024%=      5-min Rain = 0
KDO1 162303Z 23019KT 22/00 A2988 RMK A01 T02180001  RH  024%=      5-min Rain = 0
KDO1 162304Z 24019KT 22/00 A2988 RMK A01 T02180001  RH  024%=      5-min Rain = 0
KDO1 162305Z 24018KT 22/M00 A2988 RMK A01 T02181001  RH  023%=      5-min Rain = 0
KDO1 162306Z 24016KT 22/00 A2988 RMK A01 T02170001  RH  024%=      5-min Rain = 0
KDO1 162307Z 24020KT 22/00 A2988 RMK A01 T02170001  RH  024%=      5-min Rain = 0
KDO1 162308Z 24015KT 22/00 A2988 RMK A01 T02170001  RH  024%=      5-min Rain = 0
KDO1 162309Z 24016KT 22/00 A2989 RMK A01 T02160002  RH  024%=      5-min Rain = 0
KDO1 162310Z 24016KT 22/00 A2988 RMK A01 T02150001  RH  024%=      5-min Rain = 0
KDO1 162311Z 24017KT 22/00 A2989 RMK A01 T02150001  RH  024%=      5-min Rain = 0
KDO1 162312Z 24016KT 22/00 A2989 RMK A01 T02150001  RH  024%=      5-min Rain = 0
KDO1 162313Z 24016KT 21/00 A2989 RMK A01 T02140002  RH  024%=      5-min Rain = 0
KDO1 162314Z 24016KT 21/00 A2989 RMK A01 T02130002  RH  024%=      5-min Rain = 0
KDO1 162315Z 24013G18KT 21/00 A2989 RMK A01 T02130003  RH  025%=      5-min Rain = 0
KDO1 162316Z 24014KT 21/00 A2989 RMK A01 T02120003  RH  025%=      5-min Rain = 0
KDO1 162317Z 25015KT 21/00 A2989 RMK A01 T02110003  RH  025%=      5-min Rain = 0
KDO1 162318Z 25013KT 21/00 A2989 RMK A01 T02100003  RH  025%=      5-min Rain = 0
KDO1 162319Z 24013KT 21/00 A2989 RMK A01 T02100003  RH  025%=      5-min Rain = 0
KDO1 162320Z 24013KT 21/00 A2989 RMK A01 T02090003  RH  025%=      5-min Rain = 0
KDO1 162321Z 24012KT 21/00 A2989 RMK A01 T02090003  RH  025%=      5-min Rain = 0
KDO1 162322Z 24013KT 21/00 A2989 RMK A01 T02080003  RH  025%=      5-min Rain = 0
KDO1 162323Z 24013KT 21/00 A2989 RMK A01 T02080003  RH  026%=      5-min Rain = 0
KDO1 162324Z 24014KT 21/00 A2989 RMK A01 T02070004  RH  026%=      5-min Rain = 0
KDO1 162325Z 24014KT 21/01 A2989 RMK A01 T02070005  RH  026%=      5-min Rain = 0
KDO1 162326Z 24014KT 21/00 A2989 RMK A01 T02060004  RH  026%=      5-min Rain = 0
KDO1 162327Z 24014KT 21/01 A2989 RMK A01 T02060005  RH  026%=      5-min Rain = 0
KDO1 162328Z 24013KT 21/01 A2989 RMK A01 T02050006  RH  026%=      5-min Rain = 0
KDO1 162329Z 24012KT 20/01 A2989 RMK A01 T02040006  RH  027%=      5-min Rain = 0
KDO1 162330Z 24014KT 20/01 A2989 RMK A01 T02040006  RH  027%=      5-min Rain = 0
KDO1 162331Z 24012KT 20/01 A2989 RMK A01 T02030006  RH  027%=      5-min Rain = 0
KDO1 162332Z 24013KT 20/01 A2989 RMK A01 T02030006  RH  027%=      5-min Rain = 0
KDO1 162333Z 24012KT 20/01 A2989 RMK A01 T02020006  RH  027%=      5-min Rain = 0
KDO1 162334Z 24012KT 20/01 A2989 RMK A01 T02010007  RH  027%=      5-min Rain = 0
KDO1 162335Z 24011KT 20/01 A2989 RMK A01 T02000007  RH  028%=      5-min Rain = 0
KDO1 162336Z 24014KT 20/01 A2989 RMK A01 T01990007  RH  028%=      5-min Rain = 0
KDO1 162337Z 23014G19KT 20/01 A2989 RMK A01 T01990006  RH  027%=      5-min Rain = 0
KDO1 162338Z 24012KT 20/01 A2989 RMK A01 T02010006  RH  027%=      5-min Rain = 0
KDO1 162339Z 24012KT 20/01 A2989 RMK A01 T02000007  RH  027%=      5-min Rain = 0
KDO1 162340Z 24013KT 20/01 A2989 RMK A01 T01990007  RH  028%=      5-min Rain = 0
KDO1 162341Z 24013KT 20/01 A2989 RMK A01 T01980007  RH  028%=      5-min Rain = 0
KDO1 162342Z 24012KT 20/01 A2989 RMK A01 T01970007  RH  028%=      5-min Rain = 0
KDO1 162343Z 24012KT 20/01 A2989 RMK A01 T01960008  RH  028%=      5-min Rain = 0
KDO1 162344Z 24012KT 19/01 A2989 RMK A01 T01940008  RH  029%=      5-min Rain = 0
KDO1 162345Z 24013KT 19/01 A2989 RMK A01 T01930008  RH  029%=      5-min Rain = 0
KDO1 162346Z 24012KT 19/01 A2989 RMK A01 T01930008  RH  029%=      5-min Rain = 0
KDO1 162347Z 24012KT 19/01 A2989 RMK A01 T01920008  RH  029%=      5-min Rain = 0
KDO1 162348Z 24012KT 19/01 A2989 RMK A01 T01910009  RH  029%=      5-min Rain = 0
KDO1 162349Z 24012KT 19/01 A2989 RMK A01 T01910009  RH  030%=      5-min Rain = 0
KDO1 162350Z 24012KT 19/01 A2989 RMK A01 T01900009  RH  030%=      5-min Rain = 0
KDO1 162351Z 24012KT 19/01 A2989 RMK A01 T01900009  RH  030%=      5-min Rain = 0
KDO1 162352Z 24011KT 19/01 A2989 RMK A01 T01900009  RH  030%=      5-min Rain = 0
KDO1 162353Z 24012KT 19/01 A2989 RMK A01 T01890009  RH  030%=      5-min Rain = 0
KDO1 162354Z 24011KT 19/01 A2989 RMK A01 T01880009  RH  030%=      5-min Rain = 0
KDO1 162355Z 24012KT 19/01 A2989 RMK A01 T01880010  RH  030%=      5-min Rain = 0
KDO1 162356Z 25012KT 19/01 A2989 RMK A01 T01860009  RH  030%=      5-min Rain = 0
KDO1 162357Z 24012KT 19/01 A2989 RMK A01 T01860009  RH  031%=      5-min Rain = 0
KDO1 162358Z 24011KT 19/01 A2989 RMK A01 T01850010  RH  031%=      5-min Rain = 0
KDO1 162359Z 25010KT 18/01 A2989 RMK A01 T01830010  RH  031%=      5-min Rain = 0
KDO1 170000Z 25010KT 18/01 A2989 RMK A01 T01820010  RH  031%=      5-min Rain = 0
KDO1 170001Z 25010KT 18/01 A2989 RMK A01 T01800010  RH  032%=      5-min Rain = 0
KDO1 170002Z 25010KT 18/01 A2989 RMK A01 T01790009  RH  032%=      5-min Rain = 0
KDO1 170003Z 25010KT 18/01 A2989 RMK A01 T01790009  RH  032%=      5-min Rain = 0
KDO1 170004Z 24010KT 18/01 A2989 RMK A01 T01800009  RH  032%=      5-min Rain = 0
KDO1 170005Z 25010KT 18/01 A2989 RMK A01 T01790009  RH  032%=      5-min Rain = 0
KDO1 170006Z 25010KT 18/01 A2989 RMK A01 T01790009  RH  032%=      5-min Rain = 0
KDO1 170007Z 25010KT 18/01 A2989 RMK A01 T01780008  RH  032%=      5-min Rain = 0
KDO1 170008Z 25010KT 18/01 A2989 RMK A01 T01780009  RH  032%=      5-min Rain = 0
KDO1 170009Z 25009KT 18/01 A2989 RMK A01 T01780009  RH  032%=      5-min Rain = 0
KDO1 170010Z 25009KT 18/01 A2989 RMK A01 T01770009  RH  032%=      5-min Rain = 0
KDO1 170011Z 25009KT 18/01 A2989 RMK A01 T01760009  RH  032%=      5-min Rain = 0
KDO1 170012Z 25009KT 17/01 A2989 RMK A01 T01740008  RH  033%=      5-min Rain = 0
KDO1 170013Z 25009KT 17/01 A2989 RMK A01 T01740008  RH  033%=      5-min Rain = 0
KDO1 170014Z 25009KT 17/01 A2989 RMK A01 T01740008  RH  033%=      5-min Rain = 0
KDO1 170015Z 25010KT 17/01 A2989 RMK A01 T01740008  RH  033%=      5-min Rain = 0
KDO1 170016Z 25009KT 17/01 A2989 RMK A01 T01730007  RH  033%=      5-min Rain = 0
KDO1 170017Z 25009KT 17/01 A299 RMK A01 T01730008  RH  033%=      5-min Rain = 0
KDO1 170018Z 25010KT 17/01 A299 RMK A01 T01730008  RH  033%=      5-min Rain = 0
KDO1 170019Z 25010KT 17/01 A299 RMK A01 T01720007  RH  033%=      5-min Rain = 0
KDO1 170020Z 25009KT 17/01 A299 RMK A01 T01720007  RH  033%=      5-min Rain = 0
KDO1 170021Z 25009KT 17/01 A299 RMK A01 T01720007  RH  033%=      5-min Rain = 0
KDO1 170022Z 26009KT 17/01 A299 RMK A01 T01700007  RH  033%=      5-min Rain = 0
KDO1 170023Z 25009KT 17/01 A299 RMK A01 T01700007  RH  033%=      5-min Rain = 0
KDO1 170024Z 26009KT 17/01 A299 RMK A01 T01690006  RH  033%=      5-min Rain = 0
KDO1 170025Z 25009KT 17/01 A299 RMK A01 T01690006  RH  033%=      5-min Rain = 0
KDO1 170026Z 25009KT 17/01 A299 RMK A01 T01690007  RH  033%=      5-min Rain = 0
KDO1 170027Z 25009KT 17/01 A299 RMK A01 T01680007  RH  034%=      5-min Rain = 0
KDO1 170028Z 25009KT 17/01 A299 RMK A01 T01660006  RH  034%=      5-min Rain = 0
KDO1 170029Z 25009KT 17/01 A2989 RMK A01 T01650007  RH  034%=      5-min Rain = 0
KDO1 170030Z 25009KT 16/01 A299 RMK A01 T01630006  RH  034%=      5-min Rain = 0
KDO1 170031Z 25010KT 16/01 A299 RMK A01 T01620006  RH  035%=      5-min Rain = 0
KDO1 170032Z 25009KT 16/01 A299 RMK A01 T01620006  RH  035%=      5-min Rain = 0
KDO1 170033Z 25010KT 16/01 A299 RMK A01 T01620006  RH  035%=      5-min Rain = 0
KDO1 170034Z 25010KT 16/01 A299 RMK A01 T01620006  RH  035%=      5-min Rain = 0
KDO1 170035Z 25009KT 16/01 A299 RMK A01 T01620006  RH  035%=      5-min Rain = 0
KDO1 170036Z 26009KT 16/01 A299 RMK A01 T01630005  RH  034%=      5-min Rain = 0
KDO1 170037Z 26010KT 16/01 A299 RMK A01 T01640005  RH  034%=      5-min Rain = 0
KDO1 170038Z 26010KT 17/01 A299 RMK A01 T01650005  RH  034%=      5-min Rain = 0
KDO1 170039Z 26009KT 17/01 A299 RMK A01 T01670005  RH  033%=      5-min Rain = 0
KDO1 170040Z 26010KT 17/01 A299 RMK A01 T01670005  RH  033%=      5-min Rain = 0
KDO1 170041Z 25009KT 17/01 A299 RMK A01 T01670005  RH  033%=      5-min Rain = 0
KDO1 170042Z 25009KT 17/01 A299 RMK A01 T01660005  RH  033%=      5-min Rain = 0
KDO1 170043Z 25010KT 17/00 A299 RMK A01 T01660004  RH  033%=      5-min Rain = 0
KDO1 170044Z 25010KT 17/00 A299 RMK A01 T01660004  RH  033%=      5-min Rain = 0
KDO1 170045Z 25009KT 17/00 A299 RMK A01 T01670004  RH  033%=      5-min Rain = 0
KDO1 170046Z 25008KT 17/00 A299 RMK A01 T01660004  RH  033%=      5-min Rain = 0
KDO1 170047Z 25008KT 17/00 A299 RMK A01 T01650004  RH  034%=      5-min Rain = 0
KDO1 170048Z 26008KT 16/00 A299 RMK A01 T01640004  RH  034%=      5-min Rain = 0
KDO1 170049Z 26008KT 16/01 A299 RMK A01 T01640005  RH  034%=      5-min Rain = 0
KDO1 170050Z 26008KT 16/00 A299 RMK A01 T01630004  RH  034%=      5-min Rain = 0
KDO1 170051Z 26008KT 16/00 A2991 RMK A01 T01620004  RH  034%=      5-min Rain = 0
KDO1 170052Z 26009KT 16/00 A2991 RMK A01 T01610004  RH  034%=      5-min Rain = 0
KDO1 170053Z 25008KT 16/00 A2991 RMK A01 T01610004  RH  035%=      5-min Rain = 0
KDO1 170054Z 25008KT 16/00 A2991 RMK A01 T01600004  RH  035%=      5-min Rain = 0
KDO1 170055Z 25008KT 16/00 A2991 RMK A01 T01600004  RH  035%=      5-min Rain = 0
KDO1 170056Z 25007KT 16/00 A2991 RMK A01 T01580004  RH  035%=      5-min Rain = 0
KDO1 170057Z 25007KT 16/00 A2991 RMK A01 T01570004  RH  035%=      5-min Rain = 0
KDO1 170058Z 25007KT 16/00 A2991 RMK A01 T01570004  RH  035%=      5-min Rain = 0
KDO1 170059Z 25007KT 16/00 A2991 RMK A01 T01560004  RH  036%=      5-min Rain = 0
KDO1 170100Z 26007KT 16/00 A2991 RMK A01 T01550004  RH  036%=      5-min Rain = 0
KDO1 170101Z 26006KT 15/00 A2991 RMK A01 T01540004  RH  036%=      5-min Rain = 0
KDO1 170102Z 26006KT 15/00 A2991 RMK A01 T01530004  RH  036%=      5-min Rain = 0
KDO1 170103Z 25006KT 15/00 A2991 RMK A01 T01520004  RH  036%=      5-min Rain = 0
KDO1 170104Z 26006KT 15/00 A2991 RMK A01 T01510004  RH  037%=      5-min Rain = 0
KDO1 170105Z 26006KT 15/00 A2991 RMK A01 T01510004  RH  037%=      5-min Rain = 0
KDO1 170106Z 26007KT 15/00 A2991 RMK A01 T01510004  RH  037%=      5-min Rain = 0
KDO1 170107Z 26006KT 15/00 A2991 RMK A01 T01500004  RH  037%=      5-min Rain = 0
KDO1 170108Z 26006KT 15/00 A2991 RMK A01 T01500004  RH  037%=      5-min Rain = 0
KDO1 170109Z 26007KT 15/01 A2991 RMK A01 T01490005  RH  037%=      5-min Rain = 0
KDO1 170110Z 26007KT 15/00 A2991 RMK A01 T01490004  RH  037%=      5-min Rain = 0
KDO1 170111Z 26007KT 15/00 A2991 RMK A01 T01500004  RH  037%=      5-min Rain = 0
KDO1 170112Z 26007KT 15/00 A2991 RMK A01 T01490003  RH  037%=      5-min Rain = 0
KDO1 170113Z 26007KT 15/00 A2991 RMK A01 T01500003  RH  037%=      5-min Rain = 0
KDO1 170114Z 26007KT 15/00 A2991 RMK A01 T01500004  RH  037%=      5-min Rain = 0
KDO1 170115Z 26006KT 15/00 A2991 RMK A01 T01500003  RH  037%=      5-min Rain = 0
KDO1 170116Z 26007KT 15/00 A2991 RMK A01 T01500003  RH  037%=      5-min Rain = 0
KDO1 170117Z 26007KT 15/00 A2991 RMK A01 T01500003  RH  037%=      5-min Rain = 0
KDO1 170118Z 25006KT 15/00 A2991 RMK A01 T01500003  RH  037%=      5-min Rain = 0
KDO1 170119Z 25006KT 15/00 A2992 RMK A01 T01500003  RH  037%=      5-min Rain = 0
KDO1 170120Z 25006KT 15/00 A2992 RMK A01 T01500004  RH  037%=      5-min Rain = 0
KDO1 170121Z 25006KT 15/00 A2992 RMK A01 T01490003  RH  037%=      5-min Rain = 0
KDO1 170122Z 25006KT 15/00 A2992 RMK A01 T01480003  RH  037%=      5-min Rain = 0
KDO1 170123Z 25006KT 15/00 A2992 RMK A01 T01470003  RH  037%=      5-min Rain = 0
KDO1 170124Z 24006KT 15/00 A2992 RMK A01 T01460003  RH  038%=      5-min Rain = 0
KDO1 170125Z 25006KT 15/00 A2992 RMK A01 T01450003  RH  038%=      5-min Rain = 0
KDO1 170126Z 24006KT 14/00 A2992 RMK A01 T01440003  RH  038%=      5-min Rain = 0
KDO1 170127Z 24006KT 14/00 A2992 RMK A01 T01420003  RH  038%=      5-min Rain = 0
KDO1 170128Z 24006KT 14/00 A2992 RMK A01 T01420003  RH  039%=      5-min Rain = 0
KDO1 170129Z 24006KT 14/00 A2992 RMK A01 T01400003  RH  039%=      5-min Rain = 0
KDO1 170130Z 24006KT 14/00 A2992 RMK A01 T01400003  RH  039%=      5-min Rain = 0
KDO1 170131Z 24006KT 14/00 A2992 RMK A01 T01390003  RH  039%=      5-min Rain = 0
KDO1 170132Z 25006KT 14/00 A2992 RMK A01 T01390003  RH  039%=      5-min Rain = 0
KDO1 170133Z 25006KT 14/00 A2992 RMK A01 T01390003  RH  039%=      5-min Rain = 0
KDO1 170134Z 25005KT 14/00 A2992 RMK A01 T01380003  RH  040%=      5-min Rain = 0
KDO1 170135Z 26005KT 14/00 A2992 RMK A01 T01380003  RH  040%=      5-min Rain = 0
KDO1 170136Z 26005KT 14/00 A2992 RMK A01 T01380004  RH  040%=      5-min Rain = 0
KDO1 170137Z 26005KT 14/00 A2992 RMK A01 T01380004  RH  040%=      5-min Rain = 0
KDO1 170138Z 26005KT 14/00 A2992 RMK A01 T01380004  RH  040%=      5-min Rain = 0
KDO1 170139Z 27005KT 14/00 A2992 RMK A01 T01380003  RH  040%=      5-min Rain = 0
KDO1 170140Z 27005KT 14/00 A2992 RMK A01 T01380003  RH  040%=      5-min Rain = 0
KDO1 170141Z 27005KT 14/00 A2992 RMK A01 T01370003  RH  040%=      5-min Rain = 0
KDO1 170142Z 27005KT 14/00 A2992 RMK A01 T01370003  RH  040%=      5-min Rain = 0
KDO1 170143Z 28005KT 14/00 A2992 RMK A01 T01370003  RH  040%=      5-min Rain = 0
KDO1 170144Z 29004KT 14/01 A2992 RMK A01 T01360005  RH  041%=      5-min Rain = 0
KDO1 170145Z 31004KT 13/01 A2993 RMK A01 T01320005  RH  042%=      5-min Rain = 0
KDO1 170146Z 32004KT 13/01 A2993 RMK A01 T01280005  RH  043%=      5-min Rain = 0
KDO1 170147Z 31004KT 12/01 A2993 RMK A01 T01240005  RH  044%=      5-min Rain = 0
KDO1 170148Z 29004KT 12/01 A2993 RMK A01 T01230005  RH  044%=      5-min Rain = 0
KDO1 170149Z 28003KT 12/00 A2993 RMK A01 T01220003  RH  044%=      5-min Rain = 0
KDO1 170150Z 28004KT 12/00 A2993 RMK A01 T01240003  RH  043%=      5-min Rain = 0
KDO1 170151Z 28005KT 13/00 A2993 RMK A01 T01270003  RH  042%=      5-min Rain = 0
KDO1 170152Z 27005KT 13/00 A2993 RMK A01 T01310003  RH  041%=      5-min Rain = 0
KDO1 170153Z 27005KT 13/00 A2993 RMK A01 T01340003  RH  041%=      5-min Rain = 0
KDO1 170154Z 27005KT 14/00 A2993 RMK A01 T01360003  RH  040%=      5-min Rain = 0
KDO1 170155Z 26005KT 14/00 A2993 RMK A01 T01370003  RH  040%=      5-min Rain = 0
KDO1 170156Z 27005KT 14/00 A2993 RMK A01 T01370003  RH  040%=      5-min Rain = 0
KDO1 170157Z 26005KT 14/00 A2993 RMK A01 T01360003  RH  040%=      5-min Rain = 0
KDO1 170158Z 27004KT 14/00 A2993 RMK A01 T01360002  RH  040%=      5-min Rain = 0
KDO1 170159Z 27004KT 14/00 A2993 RMK A01 T01360002  RH  040%=      5-min Rain = 0
KDO1 170200Z 27005KT 14/00 A2993 RMK A01 T01360002  RH  040%=      5-min Rain = 0
KDO1 170201Z 27004KT 14/00 A2993 RMK A01 T01360002  RH  040%=      5-min Rain = 0
KDO1 170202Z 26005KT 13/00 A2993 RMK A01 T01340002  RH  040%=      5-min Rain = 0
KDO1 170203Z 25005KT 13/00 A2993 RMK A01 T01340002  RH  040%=      5-min Rain = 0
KDO1 170204Z 25006KT 13/00 A2993 RMK A01 T01330001  RH  040%=      5-min Rain = 0
KDO1 170205Z 25006KT 13/00 A2993 RMK A01 T01320002  RH  041%=      5-min Rain = 0
KDO1 170206Z 25007KT 13/00 A2993 RMK A01 T01310001  RH  041%=      5-min Rain = 0
KDO1 170207Z 25007KT 13/00 A2993 RMK A01 T01300002  RH  041%=      5-min Rain = 0
KDO1 170208Z 26006KT 13/00 A2993 RMK A01 T01300002  RH  042%=      5-min Rain = 0
KDO1 170209Z 26007KT 13/00 A2993 RMK A01 T01290003  RH  042%=      5-min Rain = 0
KDO1 170210Z 26007KT 13/00 A2993 RMK A01 T01290003  RH  042%=      5-min Rain = 0
KDO1 170211Z 26007KT 13/00 A2993 RMK A01 T01290003  RH  042%=      5-min Rain = 0
KDO1 170212Z 27007KT 13/00 A2993 RMK A01 T01300004  RH  042%=      5-min Rain = 0
KDO1 170213Z 26008KT 13/00 A2993 RMK A01 T01300004  RH  042%=      5-min Rain = 0
KDO1 170214Z 27007KT 13/01 A2993 RMK A01 T01290005  RH  042%=      5-min Rain = 0
KDO1 170215Z 26008KT 13/01 A2993 RMK A01 T01290005  RH  043%=      5-min Rain = 0
KDO1 170216Z 26008KT 13/00 A2993 RMK A01 T01290004  RH  042%=      5-min Rain = 0
KDO1 170217Z 26008KT 13/00 A2993 RMK A01 T01290004  RH  042%=      5-min Rain = 0
KDO1 170218Z 25008KT 13/00 A2993 RMK A01 T01300004  RH  042%=      5-min Rain = 0
KDO1 170219Z 25008KT 13/00 A2993 RMK A01 T01310003  RH  042%=      5-min Rain = 0
KDO1 170220Z 25007KT 13/00 A2993 RMK A01 T01320003  RH  041%=      5-min Rain = 0
KDO1 170221Z 25007KT 13/00 A2993 RMK A01 T01320003  RH  041%=      5-min Rain = 0
KDO1 170222Z 25007KT 13/00 A2993 RMK A01 T01320004  RH  042%=      5-min Rain = 0
KDO1 170223Z 25007KT 13/00 A2993 RMK A01 T01320004  RH  041%=      5-min Rain = 0
KDO1 170224Z 25007KT 13/00 A2993 RMK A01 T01310003  RH  041%=      5-min Rain = 0
KDO1 170225Z 26007KT 13/00 A2993 RMK A01 T01310003  RH  041%=      5-min Rain = 0
KDO1 170226Z 26007KT 13/00 A2993 RMK A01 T01310004  RH  042%=      5-min Rain = 0
KDO1 170227Z 26007KT 13/00 A2993 RMK A01 T01310004  RH  042%=      5-min Rain = 0
KDO1 170228Z 26007KT 13/00 A2993 RMK A01 T01310004  RH  042%=      5-min Rain = 0
KDO1 170229Z 26007KT 13/00 A2993 RMK A01 T01300004  RH  042%=      5-min Rain = 0
KDO1 170230Z 26007KT 13/00 A2993 RMK A01 T01290004  RH  042%=      5-min Rain = 0
KDO1 170231Z 26007KT 13/00 A2993 RMK A01 T01300004  RH  042%=      5-min Rain = 0
KDO1 170232Z 25007KT 13/00 A2993 RMK A01 T01300004  RH  042%=      5-min Rain = 0
KDO1 170233Z 25007KT 13/00 A2993 RMK A01 T01310004  RH  042%=      5-min Rain = 0
KDO1 170234Z 25007KT 13/00 A2993 RMK A01 T01310004  RH  042%=      5-min Rain = 0
KDO1 170235Z 25006KT 13/00 A2993 RMK A01 T01300004  RH  042%=      5-min Rain = 0
KDO1 170236Z 26006KT 13/00 A2993 RMK A01 T01290004  RH  042%=      5-min Rain = 0
KDO1 170237Z 25006KT 13/00 A2993 RMK A01 T01280004  RH  043%=      5-min Rain = 0
KDO1 170238Z 25006KT 13/00 A2993 RMK A01 T01270003  RH  043%=      5-min Rain = 0
KDO1 170239Z 25007KT 13/00 A2993 RMK A01 T01270004  RH  043%=      5-min Rain = 0
KDO1 170240Z 25007KT 13/00 A2993 RMK A01 T01250003  RH  043%=      5-min Rain = 0
KDO1 170241Z 25006KT 13/00 A2993 RMK A01 T01250004  RH  043%=      5-min Rain = 0
KDO1 170242Z 26006KT 13/00 A2993 RMK A01 T01250003  RH  043%=      5-min Rain = 0
KDO1 170243Z 26007KT 13/00 A2993 RMK A01 T01250003  RH  043%=      5-min Rain = 0
KDO1 170244Z 26007KT 13/00 A2993 RMK A01 T01250003  RH  043%=      5-min Rain = 0
KDO1 170245Z 26007KT 13/00 A2993 RMK A01 T01250003  RH  043%=      5-min Rain = 0
KDO1 170246Z 25007KT 13/00 A2993 RMK A01 T01260003  RH  043%=      5-min Rain = 0
KDO1 170247Z 26007KT 13/00 A2993 RMK A01 T01260003  RH  043%=      5-min Rain = 0
KDO1 170248Z 26007KT 13/00 A2993 RMK A01 T01260002  RH  043%=      5-min Rain = 0
KDO1 170249Z 26007KT 13/00 A2993 RMK A01 T01260002  RH  043%=      5-min Rain = 0
KDO1 170250Z 26007KT 13/00 A2993 RMK A01 T01270002  RH  042%=      5-min Rain = 0
KDO1 170251Z 26007KT 13/00 A2993 RMK A01 T01270002  RH  042%=      5-min Rain = 0
KDO1 170252Z 26007KT 13/00 A2993 RMK A01 T01280003  RH  042%=      5-min Rain = 0
KDO1 170253Z 26006KT 13/00 A2993 RMK A01 T01280002  RH  042%=      5-min Rain = 0
KDO1 170254Z 26007KT 13/00 A2993 RMK A01 T01270003  RH  042%=      5-min Rain = 0
KDO1 170255Z 26007KT 13/00 A2993 RMK A01 T01260003  RH  043%=      5-min Rain = 0
KDO1 170256Z 26007KT 13/00 A2993 RMK A01 T01260003  RH  043%=      5-min Rain = 0
KDO1 170257Z 26006KT 13/00 A2993 RMK A01 T01250002  RH  043%=      5-min Rain = 0
KDO1 170258Z 25006KT 13/00 A2993 RMK A01 T01250002  RH  043%=      5-min Rain = 0
KDO1 170259Z 25006KT 12/00 A2993 RMK A01 T01240002  RH  043%=      5-min Rain = 0
KDO1 170300Z 26006KT 12/00 A2993 RMK A01 T01230002  RH  043%=      5-min Rain = 0
KDO1 170301Z 25005KT 12/00 A2993 RMK A01 T01220002  RH  044%=      5-min Rain = 0
KDO1 170302Z 26005KT 12/00 A2993 RMK A01 T01210002  RH  044%=      5-min Rain = 0
KDO1 170303Z 26005KT 12/00 A2993 RMK A01 T01210002  RH  044%=      5-min Rain = 0
KDO1 170304Z 26005KT 12/00 A2993 RMK A01 T01200002  RH  044%=      5-min Rain = 0
KDO1 170305Z 26004KT 12/00 A2993 RMK A01 T01190002  RH  045%=      5-min Rain = 0
KDO1 170306Z 26005KT 12/00 A2993 RMK A01 T01180002  RH  045%=      5-min Rain = 0
KDO1 170307Z 25005KT 12/00 A2993 RMK A01 T01170002  RH  045%=      5-min Rain = 0
KDO1 170308Z 26005KT 12/00 A2993 RMK A01 T01170002  RH  045%=      5-min Rain = 0
KDO1 170309Z 26005KT 12/00 A2993 RMK A01 T01160002  RH  045%=      5-min Rain = 0
KDO1 170310Z 26006KT 12/00 A2993 RMK A01 T01160002  RH  045%=      5-min Rain = 0
KDO1 170311Z 26006KT 12/00 A2993 RMK A01 T01180002  RH  045%=      5-min Rain = 0
KDO1 170312Z 26006KT 12/00 A2993 RMK A01 T01180002  RH  045%=      5-min Rain = 0
KDO1 170313Z 26007KT 12/00 A2993 RMK A01 T01180002  RH  045%=      5-min Rain = 0
KDO1 170314Z 26007KT 12/00 A2993 RMK A01 T01180003  RH  045%=      5-min Rain = 0
KDO1 170315Z 26008KT 12/00 A2993 RMK A01 T01170003  RH  045%=      5-min Rain = 0
KDO1 170316Z 26008KT 12/00 A2993 RMK A01 T01170003  RH  045%=      5-min Rain = 0
KDO1 170317Z 26009KT 12/00 A2993 RMK A01 T01180003  RH  045%=      5-min Rain = 0
KDO1 170318Z 26010KT 12/00 A2993 RMK A01 T01200003  RH  045%=      5-min Rain = 0
KDO1 170319Z 26009KT 12/00 A2993 RMK A01 T01210004  RH  044%=      5-min Rain = 0
KDO1 170320Z 26009KT 12/00 A2993 RMK A01 T01220004  RH  044%=      5-min Rain = 0
KDO1 170321Z 26009KT 12/00 A2993 RMK A01 T01220004  RH  044%=      5-min Rain = 0
KDO1 170322Z 26009KT 12/00 A2993 RMK A01 T01220004  RH  044%=      5-min Rain = 0
KDO1 170323Z 26010KT 12/00 A2993 RMK A01 T01220004  RH  044%=      5-min Rain = 0
KDO1 170324Z 26010KT 12/00 A2993 RMK A01 T01220004  RH  044%=      5-min Rain = 0
KDO1 170325Z 26009KT 12/00 A2994 RMK A01 T01230003  RH  044%=      5-min Rain = 0
KDO1 170326Z 26009KT 12/00 A2994 RMK A01 T01230004  RH  044%=      5-min Rain = 0
KDO1 170327Z 26009KT 12/00 A2994 RMK A01 T01230004  RH  044%=      5-min Rain = 0
KDO1 170328Z 26009KT 12/00 A2994 RMK A01 T01220003  RH  044%=      5-min Rain = 0
KDO1 170329Z 26009KT 12/00 A2994 RMK A01 T01220003  RH  044%=      5-min Rain = 0
KDO1 170330Z 27010KT 12/00 A2994 RMK A01 T01220003  RH  044%=      5-min Rain = 0
KDO1 170331Z 27011KT 12/00 A2994 RMK A01 T01220003  RH  044%=      5-min Rain = 0
KDO1 170332Z 27010KT 12/00 A2994 RMK A01 T01220003  RH  044%=      5-min Rain = 0
KDO1 170333Z 27011KT 12/00 A2994 RMK A01 T01230003  RH  044%=      5-min Rain = 0
KDO1 170334Z 27010KT 12/00 A2994 RMK A01 T01230003  RH  044%=      5-min Rain = 0
KDO1 170335Z 27011KT 12/00 A2994 RMK A01 T01240003  RH  044%=      5-min Rain = 0
KDO1 170336Z 27011KT 12/00 A2994 RMK A01 T01240003  RH  044%=      5-min Rain = 0
KDO1 170337Z 27010KT 12/00 A2994 RMK A01 T01240003  RH  043%=      5-min Rain = 0
KDO1 170338Z 27011KT 13/00 A2994 RMK A01 T01250003  RH  043%=      5-min Rain = 0
KDO1 170339Z 27009KT 13/00 A2994 RMK A01 T01250003  RH  043%=      5-min Rain = 0
KDO1 170340Z 27010KT 13/00 A2994 RMK A01 T01250004  RH  043%=      5-min Rain = 0
KDO1 170341Z 27010KT 13/00 A2994 RMK A01 T01250004  RH  043%=      5-min Rain = 0
KDO1 170342Z 27010KT 12/00 A2994 RMK A01 T01240004  RH  043%=      5-min Rain = 0
KDO1 170343Z 27011KT 13/00 A2994 RMK A01 T01250004  RH  043%=      5-min Rain = 0
KDO1 170344Z 27012KT 13/00 A2994 RMK A01 T01260003  RH  043%=      5-min Rain = 0
KDO1 170345Z 27012KT 13/00 A2994 RMK A01 T01280003  RH  042%=      5-min Rain = 0
KDO1 170346Z 27011KT 13/00 A2994 RMK A01 T01290003  RH  042%=      5-min Rain = 0
KDO1 170347Z 27013KT 13/00 A2994 RMK A01 T01300003  RH  042%=      5-min Rain = 0
KDO1 170348Z 27012KT 13/00 A2994 RMK A01 T01300003  RH  042%=      5-min Rain = 0
KDO1 170349Z 27012KT 13/00 A2994 RMK A01 T01300003  RH  042%=      5-min Rain = 0
KDO1 170350Z 27011KT 13/00 A2994 RMK A01 T01310003  RH  041%=      5-min Rain = 0
KDO1 170351Z 27011KT 13/00 A2994 RMK A01 T01300002  RH  042%=      5-min Rain = 0
KDO1 170352Z 27011KT 13/00 A2994 RMK A01 T01300003  RH  042%=      5-min Rain = 0
KDO1 170353Z 27010KT 13/00 A2994 RMK A01 T01300003  RH  042%=      5-min Rain = 0
KDO1 170354Z 28009KT 13/00 A2994 RMK A01 T01300002  RH  042%=      5-min Rain = 0
KDO1 170355Z 28009KT 13/00 A2994 RMK A01 T01300003  RH  042%=      5-min Rain = 0
KDO1 170356Z 28010KT 13/00 A2994 RMK A01 T01290002  RH  042%=      5-min Rain = 0
KDO1 170357Z 28010KT 13/00 A2994 RMK A01 T01290002  RH  042%=      5-min Rain = 0
KDO1 170358Z 29009KT 13/00 A2994 RMK A01 T01290002  RH  042%=      5-min Rain = 0
KDO1 170359Z 29008KT 13/00 A2995 RMK A01 T01290002  RH  042%=      5-min Rain = 0
KDO1 170400Z 29008KT 13/00 A2995 RMK A01 T01280002  RH  042%=      5-min Rain = 0
KDO1 170401Z 29008KT 13/00 A2995 RMK A01 T01270003  RH  042%=      5-min Rain = 0
KDO1 170402Z 29009KT 13/00 A2995 RMK A01 T01260002  RH  043%=      5-min Rain = 0
KDO1 170403Z 29008KT 13/00 A2995 RMK A01 T01260003  RH  043%=      5-min Rain = 0
KDO1 170404Z 29010KT 13/00 A2995 RMK A01 T01260002  RH  043%=      5-min Rain = 0
KDO1 170405Z 29009KT 13/00 A2995 RMK A01 T01270002  RH  042%=      5-min Rain = 0
KDO1 170406Z 30008KT 13/00 A2995 RMK A01 T01260002  RH  042%=      5-min Rain = 0
KDO1 170407Z 30007KT 13/00 A2995 RMK A01 T01260002  RH  042%=      5-min Rain = 0
KDO1 170408Z 30007KT 13/00 A2995 RMK A01 T01260002  RH  043%=      5-min Rain = 0
KDO1 170409Z 30008KT 12/00 A2995 RMK A01 T01240002  RH  043%=      5-min Rain = 0
KDO1 170410Z 29009KT 12/00 A2995 RMK A01 T01240002  RH  043%=      5-min Rain = 0
KDO1 170411Z 29009KT 12/00 A2995 RMK A01 T01230002  RH  044%=      5-min Rain = 0
KDO1 170412Z 29009KT 12/00 A2995 RMK A01 T01220002  RH  044%=      5-min Rain = 0
KDO1 170413Z 30008KT 12/00 A2995 RMK A01 T01220002  RH  044%=      5-min Rain = 0
KDO1 170414Z 31008KT 12/00 A2996 RMK A01 T01220003  RH  044%=      5-min Rain = 0
KDO1 170415Z 32009KT 12/00 A2996 RMK A01 T01200003  RH  045%=      5-min Rain = 0
KDO1 170416Z 33008KT 12/00 A2996 RMK A01 T01170003  RH  045%=      5-min Rain = 0
KDO1 170417Z 34007KT 12/00 A2996 RMK A01 T01150004  RH  046%=      5-min Rain = 0
KDO1 170418Z 34007KT 11/00 A2996 RMK A01 T01120004  RH  047%=      5-min Rain = 0
KDO1 170419Z 34007KT 11/00 A2996 RMK A01 T01090003  RH  048%=      5-min Rain = 0
KDO1 170420Z 35007KT 11/00 A2996 RMK A01 T01070003  RH  048%=      5-min Rain = 0
KDO1 170421Z 35007KT 11/00 A2996 RMK A01 T01050002  RH  049%=      5-min Rain = 0
KDO1 170422Z 34008KT 10/00 A2996 RMK A01 T01040002  RH  049%=      5-min Rain = 0
KDO1 170423Z 33008KT 10/00 A2996 RMK A01 T01020002  RH  050%=      5-min Rain = 0
KDO1 170424Z 32008KT 10/00 A2996 RMK A01 T01000001  RH  050%=      5-min Rain = 0
KDO1 170425Z 31007KT 10/00 A2996 RMK A01 T00990002  RH  051%=      5-min Rain = 0
KDO1 170426Z 31007KT 10/00 A2996 RMK A01 T00980002  RH  051%=      5-min Rain = 0
KDO1 170427Z 31006KT 10/00 A2996 RMK A01 T00990002  RH  051%=      5-min Rain = 0
KDO1 170428Z 32007KT 10/00 A2996 RMK A01 T00990002  RH  051%=      5-min Rain = 0
KDO1 170429Z 32007KT 10/00 A2997 RMK A01 T00990002  RH  051%=      5-min Rain = 0
KDO1 170430Z 33007KT 10/00 A2997 RMK A01 T00980003  RH  052%=      5-min Rain = 0
KDO1 170431Z 33007KT 10/00 A2997 RMK A01 T00970002  RH  052%=      5-min Rain = 0
KDO1 170432Z 34006KT 10/00 A2997 RMK A01 T00970003  RH  052%=      5-min Rain = 0
KDO1 170433Z 36005KT 10/00 A2997 RMK A01 T00960003  RH  052%=      5-min Rain = 0
KDO1 170434Z 35005KT 09/00 A2997 RMK A01 T00940003  RH  053%=      5-min Rain = 0
KDO1 170435Z 34005KT 09/00 A2997 RMK A01 T00930002  RH  053%=      5-min Rain = 0
KDO1 170436Z 34007KT 09/00 A2997 RMK A01 T00930002  RH  053%=      5-min Rain = 0
KDO1 170437Z 35008KT 09/00 A2997 RMK A01 T00930001  RH  053%=      5-min Rain = 0
KDO1 170438Z 34009KT 10/00 A2997 RMK A01 T00950002  RH  052%=      5-min Rain = 0
KDO1 170439Z 34008KT 10/00 A2997 RMK A01 T00960002  RH  052%=      5-min Rain = 0
KDO1 170440Z 34009KT 10/00 A2997 RMK A01 T00960002  RH  052%=      5-min Rain = 0
KDO1 170441Z 34010KT 10/00 A2997 RMK A01 T00970003  RH  052%=      5-min Rain = 0
KDO1 170442Z 33010KT 10/00 A2997 RMK A01 T00970003  RH  052%=      5-min Rain = 0
KDO1 170443Z 35010KT 10/00 A2997 RMK A01 T00950004  RH  053%=      5-min Rain = 0
KDO1 170444Z 33010KT 10/01 A2997 RMK A01 T00950007  RH  054%=      5-min Rain = 0
KDO1 170445Z 34010KT 09/01 A2998 RMK A01 T00930008  RH  055%=      5-min Rain = 0
KDO1 170446Z 34011KT 09/01 A2998 RMK A01 T00920009  RH  056%=      5-min Rain = 0
KDO1 170447Z 35012KT 09/01 A2998 RMK A01 T00900012  RH  058%=      5-min Rain = 0
KDO1 170448Z 35012KT 09/02 A2998 RMK A01 T00880015  RH  060%=      5-min Rain = 0
KDO1 170449Z 35011KT 09/02 A2998 RMK A01 T00860017  RH  062%=      5-min Rain = 0
KDO1 170450Z 35009KT 08/02 A2998 RMK A01 T00840017  RH  063%=      5-min Rain = 0
KDO1 170451Z 36009KT 08/02 A2998 RMK A01 T00820018  RH  064%=      5-min Rain = 0
KDO1 170452Z 35010KT 08/02 A2998 RMK A01 T00800019  RH  066%=      5-min Rain = 0
KDO1 170453Z 35012KT 08/02 A2999 RMK A01 T00790022  RH  067%=      5-min Rain = 0
KDO1 170454Z 36011KT 08/02 A2999 RMK A01 T00780023  RH  068%=      5-min Rain = 0
KDO1 170455Z 36010KT 08/02 A2999 RMK A01 T00770024  RH  069%=      5-min Rain = 0
KDO1 170456Z 36009KT 08/02 A2999 RMK A01 T00750024  RH  070%=      5-min Rain = 0
KDO1 170457Z 35010KT 07/03 A2999 RMK A01 T00740025  RH  071%=      5-min Rain = 0
KDO1 170458Z 35009KT 07/03 A2999 RMK A01 T00730026  RH  072%=      5-min Rain = 0
KDO1 170459Z 35011G17KT 07/03 A2999 RMK A01 T00720027  RH  073%=      5-min Rain = 0
KDO1 170500Z 35011KT 07/03 A2999 RMK A01 T00710029  RH  075%=      5-min Rain = 0
KDO1 170501Z 35010KT 07/03 A2999 RMK A01 T00710031  RH  076%=      5-min Rain = 0
KDO1 170502Z 35010KT 07/03 A2999 RMK A01 T00700031  RH  077%=      5-min Rain = 0
KDO1 170503Z 35009KT 07/03 A2999 RMK A01 T00690032  RH  077%=      5-min Rain = 0
KDO1 170504Z 34009KT 07/03 A2999 RMK A01 T00680032  RH  078%=      5-min Rain = 0
KDO1 170505Z 35009KT 07/03 A2999 RMK A01 T00670032  RH  078%=      5-min Rain = 0
KDO1 170506Z 34007KT 07/03 A30 RMK A01 T00660032  RH  079%=      5-min Rain = 0
KDO1 170507Z 34007KT 07/03 A30 RMK A01 T00650031  RH  078%=      5-min Rain = 0
KDO1 170508Z 34009KT 06/03 A30 RMK A01 T00640029  RH  078%=      5-min Rain = 0
KDO1 170509Z 34011KT 06/03 A30 RMK A01 T00640031  RH  079%=      5-min Rain = 0
KDO1 170510Z 35011KT 06/03 A30 RMK A01 T00630032  RH  080%=      5-min Rain = 0
KDO1 170511Z 35010KT 06/03 A30 RMK A01 T00620032  RH  081%=      5-min Rain = 0
KDO1 170512Z 35010KT 06/03 A30 RMK A01 T00610032  RH  082%=      5-min Rain = 0
KDO1 170513Z 35009KT 06/03 A30 RMK A01 T00600032  RH  083%=      5-min Rain = 0
KDO1 170514Z 35008KT 06/03 A30 RMK A01 T00590032  RH  083%=      5-min Rain = 0
KDO1 170515Z 34007KT 06/03 A3001 RMK A01 T00580032  RH  083%=      5-min Rain = 0
KDO1 170516Z 34006KT 06/03 A3001 RMK A01 T00570031  RH  083%=      5-min Rain = 0
KDO1 170517Z 33006KT 06/03 A3001 RMK A01 T00570031  RH  084%=      5-min Rain = 0
KDO1 170518Z 33008KT 06/03 A3001 RMK A01 T00560031  RH  084%=      5-min Rain = 0
KDO1 170519Z 34009KT 06/03 A3001 RMK A01 T00550031  RH  084%=      5-min Rain = 0
KDO1 170520Z 34009KT 05/03 A3001 RMK A01 T00540031  RH  085%=      5-min Rain = 0
KDO1 170521Z 34010KT 05/03 A3001 RMK A01 T00540031  RH  085%=      5-min Rain = 0
KDO1 170522Z 35008KT 05/03 A3002 RMK A01 T00530031  RH  086%=      5-min Rain = 0
KDO1 170523Z 34009KT 05/03 A3002 RMK A01 T00520031  RH  086%=      5-min Rain = 0
KDO1 170524Z 34010KT 05/03 A3002 RMK A01 T00510030  RH  087%=      5-min Rain = 0
KDO1 170525Z 34010KT 05/03 A3002 RMK A01 T00500031  RH  087%=      5-min Rain = 0
KDO1 170526Z 34010KT 05/03 A3002 RMK A01 T00490030  RH  088%=      5-min Rain = 0
KDO1 170527Z 35012KT 05/03 A3002 RMK A01 T00480030  RH  088%=      5-min Rain = 0
KDO1 170528Z 35010KT 05/03 A3002 RMK A01 T00470030  RH  089%=      5-min Rain = 0
KDO1 170529Z 35011KT 05/03 A3002 RMK A01 T00460031  RH  090%=      5-min Rain = 0
KDO1 170530Z 35010KT 04/03 A3003 RMK A01 T00440031  RH  091%=      5-min Rain = 0
KDO1 170531Z 35008KT 04/03 A3003 RMK A01 T00430030  RH  092%=      5-min Rain = 0
KDO1 170532Z 35008KT 04/03 A3003 RMK A01 T00420030  RH  092%=      5-min Rain = 0
KDO1 170533Z 35008KT 04/03 A3003 RMK A01 T00410030  RH  093%=      5-min Rain = 0
KDO1 170534Z 35009KT 04/03 A3003 RMK A01 T00400030  RH  093%=      5-min Rain = 0
KDO1 170535Z 35010KT 04/03 A3003 RMK A01 T00400031  RH  094%=      5-min Rain = 0
KDO1 170536Z 34008KT 04/03 A3003 RMK A01 T00400031  RH  094%=      5-min Rain = 0
KDO1 170537Z 34008KT 04/03 A3003 RMK A01 T00400031  RH  094%=      5-min Rain = 0
KDO1 170538Z 34008KT 04/03 A3003 RMK A01 T00400031  RH  094%=      5-min Rain = 0
KDO1 170539Z 34011KT 04/03 A3003 RMK A01 T00400033  RH  095%=      5-min Rain = 0
KDO1 170540Z 35012KT 04/04 A3003 RMK A01 T00410035  RH  096%=      5-min Rain = 0
KDO1 170541Z 34011KT 04/04 A3003 RMK A01 T00420037  RH  096%=      5-min Rain = 0
KDO1 170542Z 34012KT 04/04 A3003 RMK A01 T00420038  RH  097%=      5-min Rain = 0
KDO1 170543Z 34013KT 04/04 A3003 RMK A01 T00430039  RH  097%=      5-min Rain = 0
KDO1 170544Z 34014KT 04/04 A3003 RMK A01 T00440040  RH  098%=      5-min Rain = 0
KDO1 170545Z 35011KT 04/04 A3003 RMK A01 T00440041  RH  098%=      5-min Rain = 0
KDO1 170546Z 35012KT 04/04 A3003 RMK A01 T00440041  RH  098%=      5-min Rain = 0
KDO1 170547Z 35013KT 04/04 A3003 RMK A01 T00440042  RH  099%=      5-min Rain = 0
KDO1 170548Z 35011G16KT 04/04 A3003 RMK A01 T00440043  RH  099%=      5-min Rain = 0
KDO1 170549Z 35014KT 05/04 A3003 RMK A01 T00450043  RH  099%=      5-min Rain = 0
KDO1 170550Z 35015KT 05/04 A3003 RMK A01 T00450043  RH  099%=      5-min Rain = 0
KDO1 170551Z 35013KT 05/04 A3003 RMK A01 T00450044  RH  099%=      5-min Rain = 0
KDO1 170552Z 35009G14KT 05/04 A3003 RMK A01 T00450044  RH  099%=      5-min Rain = 0
KDO1 170553Z 35012G18KT 05/04 A3003 RMK A01 T00450044  RH  099%=      5-min Rain = 0
KDO1 170554Z 35015KT 05/04 A3003 RMK A01 T00460044  RH  099%=      5-min Rain = 0
KDO1 170555Z 35013G19KT 05/04 A3003 RMK A01 T00460044  RH  099%=      5-min Rain = 0
KDO1 170556Z 35015KT 05/04 A3003 RMK A01 T00460044  RH  099%=      5-min Rain = 0
KDO1 170557Z 35016KT 05/05 A3003 RMK A01 T00460045  RH  099%=      5-min Rain = 0
KDO1 170558Z 35015G20KT 05/04 A3003 RMK A01 T00460044  RH  099%=      5-min Rain = 0
KDO1 170559Z 34014KT 05/05 A3003 RMK A01 T00460045  RH  099%=      5-min Rain = 0

Page generated in 0.0784 seconds.